<?xml version="1.0" encoding="UTF-8" standalone="no" ?>
<gpx xmlns="http://www.topografix.com/GPX/1/1" xmlns:xsi="http://www.w3.org/2001/XMLSchema-instance" xsi:schemaLocation="http://www.topografix.com/GPX/1/1 http://www.topografix.com/GPX/1/1/gpx.xsd" version="1.1" creator="VisuGPX - https://www.visugpx.com">
  <metadata>
    <name>Trail Vaugneray40km</name>
  </metadata>
  <trk>
    <name><![CDATA[Trail Vaugneray40km]]></name>
    <trkseg>
      <trkpt lat="45.73771" lon="4.6553">
        <ele>404.58651733398</ele>
        <time>2021-01-28T15:25:02.000Z</time>
      </trkpt>
      <trkpt lat="45.73796" lon="4.65538">
        <ele>409.33743286133</ele>
        <time>2021-01-28T15:25:02.008Z</time>
      </trkpt>
      <trkpt lat="45.73824" lon="4.65524">
        <ele>413.42608642578</ele>
        <time>2021-01-28T15:25:02.026Z</time>
      </trkpt>
      <trkpt lat="45.73829" lon="4.65528">
        <ele>414.3528137207</ele>
        <time>2021-01-28T15:25:02.046Z</time>
      </trkpt>
      <trkpt lat="45.73825" lon="4.65589">
        <ele>415.96499633789</ele>
        <time>2021-01-28T15:25:02.080Z</time>
      </trkpt>
      <trkpt lat="45.73807" lon="4.65631">
        <ele>417.58453369141</ele>
        <time>2021-01-28T15:25:02.126Z</time>
      </trkpt>
      <trkpt lat="45.73798" lon="4.65667">
        <ele>417.50253295898</ele>
        <time>2021-01-28T15:25:02.181Z</time>
      </trkpt>
      <trkpt lat="45.7385" lon="4.65696">
        <ele>420.35458374023</ele>
        <time>2021-01-28T15:25:02.254Z</time>
      </trkpt>
      <trkpt lat="45.73852" lon="4.65697">
        <ele>420.43148803711</ele>
        <time>2021-01-28T15:25:02.328Z</time>
      </trkpt>
      <trkpt lat="45.73886" lon="4.65707">
        <ele>424.22985839844</ele>
        <time>2021-01-28T15:25:02.414Z</time>
      </trkpt>
      <trkpt lat="45.73899" lon="4.65711">
        <ele>426.39099121094</ele>
        <time>2021-01-28T15:25:02.504Z</time>
      </trkpt>
      <trkpt lat="45.73899" lon="4.65711">
        <ele>426.39221191406</ele>
        <time>2021-01-28T15:25:02.594Z</time>
      </trkpt>
      <trkpt lat="45.7393" lon="4.65713">
        <ele>432.2512512207</ele>
        <time>2021-01-28T15:25:02.695Z</time>
      </trkpt>
      <trkpt lat="45.73962" lon="4.65684">
        <ele>436.04321289062</ele>
        <time>2021-01-28T15:25:02.808Z</time>
      </trkpt>
      <trkpt lat="45.7401" lon="4.6566">
        <ele>442.15933227539</ele>
        <time>2021-01-28T15:25:02.938Z</time>
      </trkpt>
      <trkpt lat="45.74055" lon="4.65597">
        <ele>449.1076965332</ele>
        <time>2021-01-28T15:25:03.089Z</time>
      </trkpt>
      <trkpt lat="45.74058" lon="4.65598">
        <ele>449.91857910156</ele>
        <time>2021-01-28T15:25:03.241Z</time>
      </trkpt>
      <trkpt lat="45.74067" lon="4.65598">
        <ele>451.77056884766</ele>
        <time>2021-01-28T15:25:03.396Z</time>
      </trkpt>
      <trkpt lat="45.74085" lon="4.65568">
        <ele>453.54116821289</ele>
        <time>2021-01-28T15:25:03.560Z</time>
      </trkpt>
      <trkpt lat="45.74225" lon="4.65677">
        <ele>474.54318237305</ele>
        <time>2021-01-28T15:25:03.778Z</time>
      </trkpt>
      <trkpt lat="45.74273" lon="4.65681">
        <ele>479.7043762207</ele>
        <time>2021-01-28T15:25:04.011Z</time>
      </trkpt>
      <trkpt lat="45.74371" lon="4.65704">
        <ele>481.3537902832</ele>
        <time>2021-01-28T15:25:04.278Z</time>
      </trkpt>
      <trkpt lat="45.7451" lon="4.65682">
        <ele>473.41873168945</ele>
        <time>2021-01-28T15:25:04.591Z</time>
      </trkpt>
      <trkpt lat="45.74547" lon="4.65689">
        <ele>470.59408569336</ele>
        <time>2021-01-28T15:25:04.917Z</time>
      </trkpt>
      <trkpt lat="45.74666" lon="4.65737">
        <ele>467.55493164062</ele>
        <time>2021-01-28T15:25:05.284Z</time>
      </trkpt>
      <trkpt lat="45.74759" lon="4.65755">
        <ele>465.94692993164</ele>
        <time>2021-01-28T15:25:05.682Z</time>
      </trkpt>
      <trkpt lat="45.74786" lon="4.65777">
        <ele>463.45080566406</ele>
        <time>2021-01-28T15:25:06.091Z</time>
      </trkpt>
      <trkpt lat="45.7486" lon="4.65786">
        <ele>456.54168701172</ele>
        <time>2021-01-28T15:25:06.525Z</time>
      </trkpt>
      <trkpt lat="45.75014" lon="4.65786">
        <ele>433.75268554688</ele>
        <time>2021-01-28T15:25:07.010Z</time>
      </trkpt>
      <trkpt lat="45.75182" lon="4.65828">
        <ele>405.77807617188</ele>
        <time>2021-01-28T15:25:07.552Z</time>
      </trkpt>
      <trkpt lat="45.75261" lon="4.6582">
        <ele>397.23547363281</ele>
        <time>2021-01-28T15:25:08.120Z</time>
      </trkpt>
      <trkpt lat="45.75279" lon="4.65796">
        <ele>393.76361083984</ele>
        <time>2021-01-28T15:25:08.696Z</time>
      </trkpt>
      <trkpt lat="45.75308" lon="4.65796">
        <ele>389.51165771484</ele>
        <time>2021-01-28T15:25:09.282Z</time>
      </trkpt>
      <trkpt lat="45.75489" lon="4.65973">
        <ele>382.85458374023</ele>
        <time>2021-01-28T15:25:09.941Z</time>
      </trkpt>
      <trkpt lat="45.75497" lon="4.65978">
        <ele>383.20147705078</ele>
        <time>2021-01-28T15:25:10.603Z</time>
      </trkpt>
      <trkpt lat="45.75527" lon="4.65957">
        <ele>386.56564331055</ele>
        <time>2021-01-28T15:25:11.276Z</time>
      </trkpt>
      <trkpt lat="45.7557" lon="4.65905">
        <ele>392.404296875</ele>
        <time>2021-01-28T15:25:11.968Z</time>
      </trkpt>
      <trkpt lat="45.75589" lon="4.65869">
        <ele>396.67080688477</ele>
        <time>2021-01-28T15:25:12.670Z</time>
      </trkpt>
      <trkpt lat="45.7561" lon="4.65846">
        <ele>399.13687133789</ele>
        <time>2021-01-28T15:25:13.381Z</time>
      </trkpt>
      <trkpt lat="45.75687" lon="4.65803">
        <ele>405.24472045898</ele>
        <time>2021-01-28T15:25:14.120Z</time>
      </trkpt>
      <trkpt lat="45.75737" lon="4.65786">
        <ele>407.13720703125</ele>
        <time>2021-01-28T15:25:14.876Z</time>
      </trkpt>
      <trkpt lat="45.7583" lon="4.65744">
        <ele>412.10040283203</ele>
        <time>2021-01-28T15:25:15.665Z</time>
      </trkpt>
      <trkpt lat="45.75879" lon="4.65747">
        <ele>410.62420654297</ele>
        <time>2021-01-28T15:25:16.470Z</time>
      </trkpt>
      <trkpt lat="45.7592" lon="4.65741">
        <ele>411.84606933594</ele>
        <time>2021-01-28T15:25:17.289Z</time>
      </trkpt>
      <trkpt lat="45.75956" lon="4.65722">
        <ele>413.38619995117</ele>
        <time>2021-01-28T15:25:18.120Z</time>
      </trkpt>
      <trkpt lat="45.76004" lon="4.65651">
        <ele>416.56622314453</ele>
        <time>2021-01-28T15:25:18.974Z</time>
      </trkpt>
      <trkpt lat="45.76023" lon="4.65582">
        <ele>418.44589233398</ele>
        <time>2021-01-28T15:25:19.846Z</time>
      </trkpt>
      <trkpt lat="45.76048" lon="4.65433">
        <ele>419.67633056641</ele>
        <time>2021-01-28T15:25:20.753Z</time>
      </trkpt>
      <trkpt lat="45.76057" lon="4.65422">
        <ele>418.82684326172</ele>
        <time>2021-01-28T15:25:21.664Z</time>
      </trkpt>
      <trkpt lat="45.76065" lon="4.65423">
        <ele>417.82345581055</ele>
        <time>2021-01-28T15:25:22.578Z</time>
      </trkpt>
      <trkpt lat="45.76095" lon="4.65452">
        <ele>416</ele>
        <time>2021-01-28T15:25:23.504Z</time>
      </trkpt>
      <trkpt lat="45.76095" lon="4.65452">
        <ele>416</ele>
        <time>2021-01-28T15:25:24.430Z</time>
      </trkpt>
      <trkpt lat="45.76095" lon="4.65452">
        <ele>416</ele>
        <time>2021-01-28T15:25:25.356Z</time>
      </trkpt>
      <trkpt lat="45.76118" lon="4.65474">
        <ele>416</ele>
        <time>2021-01-28T15:25:26.291Z</time>
      </trkpt>
      <trkpt lat="45.76118" lon="4.65474">
        <ele>416</ele>
        <time>2021-01-28T15:25:27.226Z</time>
      </trkpt>
      <trkpt lat="45.76151" lon="4.65506">
        <ele>420.59747314453</ele>
        <time>2021-01-28T15:25:28.175Z</time>
      </trkpt>
      <trkpt lat="45.76166" lon="4.65471">
        <ele>421.87966918945</ele>
        <time>2021-01-28T15:25:29.133Z</time>
      </trkpt>
      <trkpt lat="45.76184" lon="4.65453">
        <ele>423.50537109375</ele>
        <time>2021-01-28T15:25:30.099Z</time>
      </trkpt>
      <trkpt lat="45.76184" lon="4.65453">
        <ele>423.5065612793</ele>
        <time>2021-01-28T15:25:31.065Z</time>
      </trkpt>
      <trkpt lat="45.76204" lon="4.65438">
        <ele>425.91354370117</ele>
        <time>2021-01-28T15:25:32.038Z</time>
      </trkpt>
      <trkpt lat="45.76256" lon="4.65415">
        <ele>429.48153686523</ele>
        <time>2021-01-28T15:25:33.029Z</time>
      </trkpt>
      <trkpt lat="45.76284" lon="4.65356">
        <ele>427.27459716797</ele>
        <time>2021-01-28T15:25:34.037Z</time>
      </trkpt>
      <trkpt lat="45.76308" lon="4.65325">
        <ele>427.63369750977</ele>
        <time>2021-01-28T15:25:35.056Z</time>
      </trkpt>
      <trkpt lat="45.76334" lon="4.65266">
        <ele>429.48712158203</ele>
        <time>2021-01-28T15:25:36.091Z</time>
      </trkpt>
      <trkpt lat="45.76366" lon="4.65227">
        <ele>431.78384399414</ele>
        <time>2021-01-28T15:25:37.140Z</time>
      </trkpt>
      <trkpt lat="45.76384" lon="4.65212">
        <ele>433.63726806641</ele>
        <time>2021-01-28T15:25:38.196Z</time>
      </trkpt>
      <trkpt lat="45.76497" lon="4.65159">
        <ele>454.916015625</ele>
        <time>2021-01-28T15:25:39.291Z</time>
      </trkpt>
      <trkpt lat="45.76562" lon="4.65132">
        <ele>467.73745727539</ele>
        <time>2021-01-28T15:25:40.409Z</time>
      </trkpt>
      <trkpt lat="45.76562" lon="4.65132">
        <ele>467.73837280273</ele>
        <time>2021-01-28T15:25:41.527Z</time>
      </trkpt>
      <trkpt lat="45.76588" lon="4.65118">
        <ele>473.22973632812</ele>
        <time>2021-01-28T15:25:42.654Z</time>
      </trkpt>
      <trkpt lat="45.76662" lon="4.65106">
        <ele>483.46215820312</ele>
        <time>2021-01-28T15:25:43.806Z</time>
      </trkpt>
      <trkpt lat="45.76668" lon="4.65172">
        <ele>480.48010253906</ele>
        <time>2021-01-28T15:25:44.974Z</time>
      </trkpt>
      <trkpt lat="45.76682" lon="4.65142">
        <ele>483.32348632812</ele>
        <time>2021-01-28T15:25:46.150Z</time>
      </trkpt>
      <trkpt lat="45.76692" lon="4.6512">
        <ele>484.48156738281</ele>
        <time>2021-01-28T15:25:47.332Z</time>
      </trkpt>
      <trkpt lat="45.76709" lon="4.65052">
        <ele>486.75759887695</ele>
        <time>2021-01-28T15:25:48.531Z</time>
      </trkpt>
      <trkpt lat="45.76718" lon="4.65042">
        <ele>486.48669433594</ele>
        <time>2021-01-28T15:25:49.734Z</time>
      </trkpt>
      <trkpt lat="45.76718" lon="4.65042">
        <ele>486.4873046875</ele>
        <time>2021-01-28T15:25:50.937Z</time>
      </trkpt>
      <trkpt lat="45.76782" lon="4.65055">
        <ele>484.67431640625</ele>
        <time>2021-01-28T15:25:52.162Z</time>
      </trkpt>
      <trkpt lat="45.76813" lon="4.65052">
        <ele>484.64324951172</ele>
        <time>2021-01-28T15:25:53.397Z</time>
      </trkpt>
      <trkpt lat="45.76833" lon="4.65039">
        <ele>487.42340087891</ele>
        <time>2021-01-28T15:25:54.639Z</time>
      </trkpt>
      <trkpt lat="45.76868" lon="4.65003">
        <ele>495.29629516602</ele>
        <time>2021-01-28T15:25:55.896Z</time>
      </trkpt>
      <trkpt lat="45.76873" lon="4.64985">
        <ele>500.44332885742</ele>
        <time>2021-01-28T15:25:57.157Z</time>
      </trkpt>
      <trkpt lat="45.7689" lon="4.64974">
        <ele>504.81442260742</ele>
        <time>2021-01-28T15:25:58.425Z</time>
      </trkpt>
      <trkpt lat="45.76928" lon="4.64974">
        <ele>508.77615356445</ele>
        <time>2021-01-28T15:25:59.705Z</time>
      </trkpt>
      <trkpt lat="45.76948" lon="4.6499">
        <ele>508.17373657227</ele>
        <time>2021-01-28T15:26:00.993Z</time>
      </trkpt>
      <trkpt lat="45.7697" lon="4.64963">
        <ele>513.59893798828</ele>
        <time>2021-01-28T15:26:02.290Z</time>
      </trkpt>
      <trkpt lat="45.76986" lon="4.64936">
        <ele>516.11163330078</ele>
        <time>2021-01-28T15:26:03.596Z</time>
      </trkpt>
      <trkpt lat="45.7697" lon="4.64884">
        <ele>521.00842285156</ele>
        <time>2021-01-28T15:26:04.915Z</time>
      </trkpt>
      <trkpt lat="45.7697" lon="4.64878">
        <ele>521.4169921875</ele>
        <time>2021-01-28T15:26:06.235Z</time>
      </trkpt>
      <trkpt lat="45.76948" lon="4.64759">
        <ele>536.26098632812</ele>
        <time>2021-01-28T15:26:07.584Z</time>
      </trkpt>
      <trkpt lat="45.76954" lon="4.64736">
        <ele>539.65893554688</ele>
        <time>2021-01-28T15:26:08.939Z</time>
      </trkpt>
      <trkpt lat="45.77005" lon="4.64628">
        <ele>556.71459960938</ele>
        <time>2021-01-28T15:26:10.324Z</time>
      </trkpt>
      <trkpt lat="45.7709" lon="4.64486">
        <ele>578.10516357422</ele>
        <time>2021-01-28T15:26:11.753Z</time>
      </trkpt>
      <trkpt lat="45.77096" lon="4.64456">
        <ele>582.72644042969</ele>
        <time>2021-01-28T15:26:13.189Z</time>
      </trkpt>
      <trkpt lat="45.77101" lon="4.64381">
        <ele>591.16979980469</ele>
        <time>2021-01-28T15:26:14.643Z</time>
      </trkpt>
      <trkpt lat="45.77096" lon="4.6425">
        <ele>608.88726806641</ele>
        <time>2021-01-28T15:26:16.127Z</time>
      </trkpt>
      <trkpt lat="45.77118" lon="4.6417">
        <ele>609.28369140625</ele>
        <time>2021-01-28T15:26:17.631Z</time>
      </trkpt>
      <trkpt lat="45.7713" lon="4.64158">
        <ele>609.96539306641</ele>
        <time>2021-01-28T15:26:19.140Z</time>
      </trkpt>
      <trkpt lat="45.77196" lon="4.64181">
        <ele>608.13256835938</ele>
        <time>2021-01-28T15:26:20.672Z</time>
      </trkpt>
      <trkpt lat="45.77229" lon="4.64184">
        <ele>611.03802490234</ele>
        <time>2021-01-28T15:26:22.215Z</time>
      </trkpt>
      <trkpt lat="45.77229" lon="4.64184">
        <ele>611.03680419922</ele>
        <time>2021-01-28T15:26:23.758Z</time>
      </trkpt>
      <trkpt lat="45.77237" lon="4.64186">
        <ele>611.75744628906</ele>
        <time>2021-01-28T15:26:25.303Z</time>
      </trkpt>
      <trkpt lat="45.77293" lon="4.64203">
        <ele>611.37365722656</ele>
        <time>2021-01-28T15:26:26.867Z</time>
      </trkpt>
      <trkpt lat="45.77323" lon="4.64188">
        <ele>611.42034912109</ele>
        <time>2021-01-28T15:26:28.442Z</time>
      </trkpt>
      <trkpt lat="45.77356" lon="4.64148">
        <ele>614.43035888672</ele>
        <time>2021-01-28T15:26:30.032Z</time>
      </trkpt>
      <trkpt lat="45.77428" lon="4.64004">
        <ele>621.70300292969</ele>
        <time>2021-01-28T15:26:31.663Z</time>
      </trkpt>
      <trkpt lat="45.77457" lon="4.63976">
        <ele>618.64514160156</ele>
        <time>2021-01-28T15:26:33.305Z</time>
      </trkpt>
      <trkpt lat="45.775" lon="4.63963">
        <ele>611.43334960938</ele>
        <time>2021-01-28T15:26:34.962Z</time>
      </trkpt>
      <trkpt lat="45.77537" lon="4.63937">
        <ele>612.41290283203</ele>
        <time>2021-01-28T15:26:36.633Z</time>
      </trkpt>
      <trkpt lat="45.77574" lon="4.63891">
        <ele>612.91235351562</ele>
        <time>2021-01-28T15:26:38.320Z</time>
      </trkpt>
      <trkpt lat="45.77589" lon="4.63854">
        <ele>611.39569091797</ele>
        <time>2021-01-28T15:26:40.017Z</time>
      </trkpt>
      <trkpt lat="45.77554" lon="4.63683">
        <ele>604.65606689453</ele>
        <time>2021-01-28T15:26:41.756Z</time>
      </trkpt>
      <trkpt lat="45.77518" lon="4.63534">
        <ele>596.39599609375</ele>
        <time>2021-01-28T15:26:43.532Z</time>
      </trkpt>
      <trkpt lat="45.77516" lon="4.63506">
        <ele>596.57232666016</ele>
        <time>2021-01-28T15:26:45.314Z</time>
      </trkpt>
      <trkpt lat="45.77501" lon="4.63456">
        <ele>602.90826416016</ele>
        <time>2021-01-28T15:26:47.109Z</time>
      </trkpt>
      <trkpt lat="45.77502" lon="4.63429">
        <ele>604.34979248047</ele>
        <time>2021-01-28T15:26:48.910Z</time>
      </trkpt>
      <trkpt lat="45.7753" lon="4.63395">
        <ele>598.48114013672</ele>
        <time>2021-01-28T15:26:50.723Z</time>
      </trkpt>
      <trkpt lat="45.77641" lon="4.63326">
        <ele>583.75177001953</ele>
        <time>2021-01-28T15:26:52.577Z</time>
      </trkpt>
      <trkpt lat="45.77701" lon="4.63259">
        <ele>580.22625732422</ele>
        <time>2021-01-28T15:26:54.456Z</time>
      </trkpt>
      <trkpt lat="45.77712" lon="4.6323">
        <ele>577.97998046875</ele>
        <time>2021-01-28T15:26:56.343Z</time>
      </trkpt>
      <trkpt lat="45.77715" lon="4.632">
        <ele>577.19354248047</ele>
        <time>2021-01-28T15:26:58.237Z</time>
      </trkpt>
      <trkpt lat="45.77709" lon="4.63086">
        <ele>564.51251220703</ele>
        <time>2021-01-28T15:27:00.158Z</time>
      </trkpt>
      <trkpt lat="45.77703" lon="4.63046">
        <ele>559.51739501953</ele>
        <time>2021-01-28T15:27:02.088Z</time>
      </trkpt>
      <trkpt lat="45.77661" lon="4.62942">
        <ele>549.73516845703</ele>
        <time>2021-01-28T15:27:04.046Z</time>
      </trkpt>
      <trkpt lat="45.77644" lon="4.6287">
        <ele>548.69262695312</ele>
        <time>2021-01-28T15:27:06.022Z</time>
      </trkpt>
      <trkpt lat="45.77646" lon="4.62843">
        <ele>548.07196044922</ele>
        <time>2021-01-28T15:27:08.004Z</time>
      </trkpt>
      <trkpt lat="45.77665" lon="4.62795">
        <ele>545.29266357422</ele>
        <time>2021-01-28T15:27:09.999Z</time>
      </trkpt>
      <trkpt lat="45.77691" lon="4.62756">
        <ele>541.36596679688</ele>
        <time>2021-01-28T15:27:12.007Z</time>
      </trkpt>
      <trkpt lat="45.77727" lon="4.62718">
        <ele>534.06622314453</ele>
        <time>2021-01-28T15:27:14.030Z</time>
      </trkpt>
      <trkpt lat="45.77727" lon="4.62718">
        <ele>534.0634765625</ele>
        <time>2021-01-28T15:27:16.053Z</time>
      </trkpt>
      <trkpt lat="45.77741" lon="4.62699">
        <ele>532.97991943359</ele>
        <time>2021-01-28T15:27:18.082Z</time>
      </trkpt>
      <trkpt lat="45.77756" lon="4.62661">
        <ele>531.44152832031</ele>
        <time>2021-01-28T15:27:20.122Z</time>
      </trkpt>
      <trkpt lat="45.77755" lon="4.62656">
        <ele>531.75042724609</ele>
        <time>2021-01-28T15:27:22.163Z</time>
      </trkpt>
      <trkpt lat="45.7773" lon="4.62601">
        <ele>536.32556152344</ele>
        <time>2021-01-28T15:27:24.219Z</time>
      </trkpt>
      <trkpt lat="45.77636" lon="4.6248">
        <ele>535.47485351562</ele>
        <time>2021-01-28T15:27:26.317Z</time>
      </trkpt>
      <trkpt lat="45.77636" lon="4.6248">
        <ele>535.47308349609</ele>
        <time>2021-01-28T15:27:28.415Z</time>
      </trkpt>
      <trkpt lat="45.77568" lon="4.62422">
        <ele>530.22375488281</ele>
        <time>2021-01-28T15:27:30.540Z</time>
      </trkpt>
      <trkpt lat="45.77568" lon="4.62422">
        <ele>530.22314453125</ele>
        <time>2021-01-28T15:27:32.665Z</time>
      </trkpt>
      <trkpt lat="45.77539" lon="4.62402">
        <ele>526.75903320312</ele>
        <time>2021-01-28T15:27:34.800Z</time>
      </trkpt>
      <trkpt lat="45.77525" lon="4.624">
        <ele>528.74841308594</ele>
        <time>2021-01-28T15:27:36.940Z</time>
      </trkpt>
      <trkpt lat="45.77525" lon="4.624">
        <ele>528.74658203125</ele>
        <time>2021-01-28T15:27:39.080Z</time>
      </trkpt>
      <trkpt lat="45.77504" lon="4.62398">
        <ele>533.54156494141</ele>
        <time>2021-01-28T15:27:41.227Z</time>
      </trkpt>
      <trkpt lat="45.77487" lon="4.62366">
        <ele>537.83276367188</ele>
        <time>2021-01-28T15:27:43.384Z</time>
      </trkpt>
      <trkpt lat="45.77482" lon="4.62318">
        <ele>542.08666992188</ele>
        <time>2021-01-28T15:27:45.552Z</time>
      </trkpt>
      <trkpt lat="45.77485" lon="4.62291">
        <ele>541.85760498047</ele>
        <time>2021-01-28T15:27:47.726Z</time>
      </trkpt>
      <trkpt lat="45.77501" lon="4.62237">
        <ele>535.888671875</ele>
        <time>2021-01-28T15:27:49.914Z</time>
      </trkpt>
      <trkpt lat="45.775" lon="4.62204">
        <ele>536.61663818359</ele>
        <time>2021-01-28T15:27:52.110Z</time>
      </trkpt>
      <trkpt lat="45.77518" lon="4.62154">
        <ele>529.09533691406</ele>
        <time>2021-01-28T15:27:54.319Z</time>
      </trkpt>
      <trkpt lat="45.77563" lon="4.62093">
        <ele>512.59600830078</ele>
        <time>2021-01-28T15:27:56.549Z</time>
      </trkpt>
      <trkpt lat="45.77576" lon="4.62058">
        <ele>509.70932006836</ele>
        <time>2021-01-28T15:27:58.788Z</time>
      </trkpt>
      <trkpt lat="45.77578" lon="4.62052">
        <ele>508.78262329102</ele>
        <time>2021-01-28T15:28:01.028Z</time>
      </trkpt>
      <trkpt lat="45.77579" lon="4.62044">
        <ele>507.77590942383</ele>
        <time>2021-01-28T15:28:03.270Z</time>
      </trkpt>
      <trkpt lat="45.77567" lon="4.62011">
        <ele>506.84329223633</ele>
        <time>2021-01-28T15:28:05.521Z</time>
      </trkpt>
      <trkpt lat="45.77552" lon="4.6199">
        <ele>506.33087158203</ele>
        <time>2021-01-28T15:28:07.779Z</time>
      </trkpt>
      <trkpt lat="45.77424" lon="4.61987">
        <ele>536.63006591797</ele>
        <time>2021-01-28T15:28:10.080Z</time>
      </trkpt>
      <trkpt lat="45.77379" lon="4.61968">
        <ele>547.90808105469</ele>
        <time>2021-01-28T15:28:12.397Z</time>
      </trkpt>
      <trkpt lat="45.77317" lon="4.61896">
        <ele>561.98815917969</ele>
        <time>2021-01-28T15:28:14.740Z</time>
      </trkpt>
      <trkpt lat="45.7728" lon="4.61827">
        <ele>561.27447509766</ele>
        <time>2021-01-28T15:28:17.103Z</time>
      </trkpt>
      <trkpt lat="45.77257" lon="4.618">
        <ele>560.48107910156</ele>
        <time>2021-01-28T15:28:19.476Z</time>
      </trkpt>
      <trkpt lat="45.77226" lon="4.61791">
        <ele>561.32067871094</ele>
        <time>2021-01-28T15:28:21.860Z</time>
      </trkpt>
      <trkpt lat="45.7719" lon="4.61796">
        <ele>558.97509765625</ele>
        <time>2021-01-28T15:28:24.256Z</time>
      </trkpt>
      <trkpt lat="45.77176" lon="4.61813">
        <ele>560.04028320312</ele>
        <time>2021-01-28T15:28:26.658Z</time>
      </trkpt>
      <trkpt lat="45.77141" lon="4.61926">
        <ele>573.77679443359</ele>
        <time>2021-01-28T15:28:29.089Z</time>
      </trkpt>
      <trkpt lat="45.77116" lon="4.61964">
        <ele>577.91925048828</ele>
        <time>2021-01-28T15:28:31.532Z</time>
      </trkpt>
      <trkpt lat="45.7709" lon="4.61995">
        <ele>581.50335693359</ele>
        <time>2021-01-28T15:28:33.986Z</time>
      </trkpt>
      <trkpt lat="45.77047" lon="4.62024">
        <ele>586.52001953125</ele>
        <time>2021-01-28T15:28:36.456Z</time>
      </trkpt>
      <trkpt lat="45.77031" lon="4.62057">
        <ele>588.44458007812</ele>
        <time>2021-01-28T15:28:38.935Z</time>
      </trkpt>
      <trkpt lat="45.76999" lon="4.62095">
        <ele>589.91754150391</ele>
        <time>2021-01-28T15:28:41.428Z</time>
      </trkpt>
      <trkpt lat="45.7698" lon="4.62164">
        <ele>599.98022460938</ele>
        <time>2021-01-28T15:28:43.939Z</time>
      </trkpt>
      <trkpt lat="45.7697" lon="4.62321">
        <ele>612.05865478516</ele>
        <time>2021-01-28T15:28:46.486Z</time>
      </trkpt>
      <trkpt lat="45.76926" lon="4.62406">
        <ele>616.57678222656</ele>
        <time>2021-01-28T15:28:49.058Z</time>
      </trkpt>
      <trkpt lat="45.76855" lon="4.62465">
        <ele>626.75042724609</ele>
        <time>2021-01-28T15:28:51.658Z</time>
      </trkpt>
      <trkpt lat="45.76831" lon="4.62481">
        <ele>629.72583007812</ele>
        <time>2021-01-28T15:28:54.266Z</time>
      </trkpt>
      <trkpt lat="45.76678" lon="4.62542">
        <ele>652.20928955078</ele>
        <time>2021-01-28T15:28:56.927Z</time>
      </trkpt>
      <trkpt lat="45.76619" lon="4.62581">
        <ele>664.9716796875</ele>
        <time>2021-01-28T15:28:59.610Z</time>
      </trkpt>
      <trkpt lat="45.76544" lon="4.62609">
        <ele>679.49243164062</ele>
        <time>2021-01-28T15:29:02.319Z</time>
      </trkpt>
      <trkpt lat="45.76499" lon="4.62646">
        <ele>681.58489990234</ele>
        <time>2021-01-28T15:29:05.045Z</time>
      </trkpt>
      <trkpt lat="45.76499" lon="4.62646">
        <ele>681.58489990234</ele>
        <time>2021-01-28T15:29:07.771Z</time>
      </trkpt>
      <trkpt lat="45.76475" lon="4.6266">
        <ele>685.05181884766</ele>
        <time>2021-01-28T15:29:10.506Z</time>
      </trkpt>
      <trkpt lat="45.76414" lon="4.62729">
        <ele>699.10668945312</ele>
        <time>2021-01-28T15:29:13.267Z</time>
      </trkpt>
      <trkpt lat="45.76404" lon="4.6276">
        <ele>701.74572753906</ele>
        <time>2021-01-28T15:29:16.036Z</time>
      </trkpt>
      <trkpt lat="45.76373" lon="4.62806">
        <ele>709.52581787109</ele>
        <time>2021-01-28T15:29:18.819Z</time>
      </trkpt>
      <trkpt lat="45.76349" lon="4.628">
        <ele>717.08819580078</ele>
        <time>2021-01-28T15:29:21.611Z</time>
      </trkpt>
      <trkpt lat="45.76346" lon="4.62766">
        <ele>717.95867919922</ele>
        <time>2021-01-28T15:29:24.411Z</time>
      </trkpt>
      <trkpt lat="45.76311" lon="4.62854">
        <ele>723.12072753906</ele>
        <time>2021-01-28T15:29:27.235Z</time>
      </trkpt>
      <trkpt lat="45.76283" lon="4.62891">
        <ele>724.22314453125</ele>
        <time>2021-01-28T15:29:30.071Z</time>
      </trkpt>
      <trkpt lat="45.7627" lon="4.62867">
        <ele>726.92669677734</ele>
        <time>2021-01-28T15:29:32.915Z</time>
      </trkpt>
      <trkpt lat="45.76197" lon="4.62703">
        <ele>744.32061767578</ele>
        <time>2021-01-28T15:29:35.804Z</time>
      </trkpt>
      <trkpt lat="45.76114" lon="4.62631">
        <ele>754.84130859375</ele>
        <time>2021-01-28T15:29:38.725Z</time>
      </trkpt>
      <trkpt lat="45.7608" lon="4.62623">
        <ele>758.41351318359</ele>
        <time>2021-01-28T15:29:41.658Z</time>
      </trkpt>
      <trkpt lat="45.76031" lon="4.62597">
        <ele>762.47528076172</ele>
        <time>2021-01-28T15:29:44.608Z</time>
      </trkpt>
      <trkpt lat="45.75992" lon="4.62755">
        <ele>761.53509521484</ele>
        <time>2021-01-28T15:29:47.597Z</time>
      </trkpt>
      <trkpt lat="45.75989" lon="4.62767">
        <ele>761.51977539062</ele>
        <time>2021-01-28T15:29:50.589Z</time>
      </trkpt>
      <trkpt lat="45.75967" lon="4.628">
        <ele>760.24694824219</ele>
        <time>2021-01-28T15:29:53.592Z</time>
      </trkpt>
      <trkpt lat="45.75911" lon="4.62823">
        <ele>762.98187255859</ele>
        <time>2021-01-28T15:29:56.614Z</time>
      </trkpt>
      <trkpt lat="45.75808" lon="4.62807">
        <ele>763.91949462891</ele>
        <time>2021-01-28T15:29:59.671Z</time>
      </trkpt>
      <trkpt lat="45.7575" lon="4.62766">
        <ele>763.22186279297</ele>
        <time>2021-01-28T15:30:02.749Z</time>
      </trkpt>
      <trkpt lat="45.75733" lon="4.62734">
        <ele>763.87164306641</ele>
        <time>2021-01-28T15:30:05.837Z</time>
      </trkpt>
      <trkpt lat="45.75721" lon="4.62681">
        <ele>765.47698974609</ele>
        <time>2021-01-28T15:30:08.938Z</time>
      </trkpt>
      <trkpt lat="45.7571" lon="4.62586">
        <ele>768.11236572266</ele>
        <time>2021-01-28T15:30:12.061Z</time>
      </trkpt>
      <trkpt lat="45.75696" lon="4.62319">
        <ele>770.25982666016</ele>
        <time>2021-01-28T15:30:15.247Z</time>
      </trkpt>
      <trkpt lat="45.75682" lon="4.62213">
        <ele>766.05493164062</ele>
        <time>2021-01-28T15:30:18.458Z</time>
      </trkpt>
      <trkpt lat="45.75682" lon="4.62135">
        <ele>770.56829833984</ele>
        <time>2021-01-28T15:30:21.687Z</time>
      </trkpt>
      <trkpt lat="45.75649" lon="4.621">
        <ele>766.724609375</ele>
        <time>2021-01-28T15:30:24.930Z</time>
      </trkpt>
      <trkpt lat="45.75642" lon="4.62065">
        <ele>765.99200439453</ele>
        <time>2021-01-28T15:30:28.181Z</time>
      </trkpt>
      <trkpt lat="45.75624" lon="4.62021">
        <ele>761.77923583984</ele>
        <time>2021-01-28T15:30:31.444Z</time>
      </trkpt>
      <trkpt lat="45.7561" lon="4.61839">
        <ele>757.35888671875</ele>
        <time>2021-01-28T15:30:34.750Z</time>
      </trkpt>
      <trkpt lat="45.7561" lon="4.61839">
        <ele>757.35711669922</ele>
        <time>2021-01-28T15:30:38.056Z</time>
      </trkpt>
      <trkpt lat="45.75606" lon="4.61789">
        <ele>759.87164306641</ele>
        <time>2021-01-28T15:30:41.373Z</time>
      </trkpt>
      <trkpt lat="45.75606" lon="4.61789">
        <ele>759.87225341797</ele>
        <time>2021-01-28T15:30:44.690Z</time>
      </trkpt>
      <trkpt lat="45.75606" lon="4.61788">
        <ele>759.87225341797</ele>
        <time>2021-01-28T15:30:48.008Z</time>
      </trkpt>
      <trkpt lat="45.75584" lon="4.61783">
        <ele>759.65295410156</ele>
        <time>2021-01-28T15:30:51.333Z</time>
      </trkpt>
      <trkpt lat="45.7558" lon="4.61779">
        <ele>760.04425048828</ele>
        <time>2021-01-28T15:30:54.660Z</time>
      </trkpt>
      <trkpt lat="45.75513" lon="4.6168">
        <ele>767.9921875</ele>
        <time>2021-01-28T15:30:58.019Z</time>
      </trkpt>
      <trkpt lat="45.75482" lon="4.61655">
        <ele>772.52972412109</ele>
        <time>2021-01-28T15:31:01.390Z</time>
      </trkpt>
      <trkpt lat="45.75418" lon="4.61629">
        <ele>779.75952148438</ele>
        <time>2021-01-28T15:31:04.783Z</time>
      </trkpt>
      <trkpt lat="45.7536" lon="4.61592">
        <ele>782.12469482422</ele>
        <time>2021-01-28T15:31:08.197Z</time>
      </trkpt>
      <trkpt lat="45.75311" lon="4.6158">
        <ele>783.39691162109</ele>
        <time>2021-01-28T15:31:11.628Z</time>
      </trkpt>
      <trkpt lat="45.75293" lon="4.6156">
        <ele>784.20812988281</ele>
        <time>2021-01-28T15:31:15.066Z</time>
      </trkpt>
      <trkpt lat="45.75274" lon="4.61457">
        <ele>783.75067138672</ele>
        <time>2021-01-28T15:31:18.529Z</time>
      </trkpt>
      <trkpt lat="45.75274" lon="4.61378">
        <ele>778.80426025391</ele>
        <time>2021-01-28T15:31:22.011Z</time>
      </trkpt>
      <trkpt lat="45.75274" lon="4.61378">
        <ele>778.80548095703</ele>
        <time>2021-01-28T15:31:25.493Z</time>
      </trkpt>
      <trkpt lat="45.75247" lon="4.61228">
        <ele>765.62310791016</ele>
        <time>2021-01-28T15:31:29.011Z</time>
      </trkpt>
      <trkpt lat="45.75234" lon="4.61191">
        <ele>762.33032226562</ele>
        <time>2021-01-28T15:31:32.539Z</time>
      </trkpt>
      <trkpt lat="45.75176" lon="4.61117">
        <ele>760.17340087891</ele>
        <time>2021-01-28T15:31:36.092Z</time>
      </trkpt>
      <trkpt lat="45.75138" lon="4.61037">
        <ele>755.47192382812</ele>
        <time>2021-01-28T15:31:39.668Z</time>
      </trkpt>
      <trkpt lat="45.75123" lon="4.61028">
        <ele>754.55377197266</ele>
        <time>2021-01-28T15:31:43.249Z</time>
      </trkpt>
      <trkpt lat="45.7507" lon="4.61025">
        <ele>755.06048583984</ele>
        <time>2021-01-28T15:31:46.848Z</time>
      </trkpt>
      <trkpt lat="45.74998" lon="4.61042">
        <ele>755.73095703125</ele>
        <time>2021-01-28T15:31:50.472Z</time>
      </trkpt>
      <trkpt lat="45.74888" lon="4.61107">
        <ele>747.67272949219</ele>
        <time>2021-01-28T15:31:54.135Z</time>
      </trkpt>
      <trkpt lat="45.74849" lon="4.61154">
        <ele>740.01959228516</ele>
        <time>2021-01-28T15:31:57.815Z</time>
      </trkpt>
      <trkpt lat="45.7478" lon="4.61165">
        <ele>736.82916259766</ele>
        <time>2021-01-28T15:32:01.518Z</time>
      </trkpt>
      <trkpt lat="45.74775" lon="4.61155">
        <ele>736.17211914062</ele>
        <time>2021-01-28T15:32:05.224Z</time>
      </trkpt>
      <trkpt lat="45.74765" lon="4.6114">
        <ele>735.13104248047</ele>
        <time>2021-01-28T15:32:08.935Z</time>
      </trkpt>
      <trkpt lat="45.74671" lon="4.61035">
        <ele>730.17565917969</ele>
        <time>2021-01-28T15:32:12.686Z</time>
      </trkpt>
      <trkpt lat="45.74639" lon="4.60983">
        <ele>726.58489990234</ele>
        <time>2021-01-28T15:32:16.453Z</time>
      </trkpt>
      <trkpt lat="45.74602" lon="4.60895">
        <ele>725.84985351562</ele>
        <time>2021-01-28T15:32:20.244Z</time>
      </trkpt>
      <trkpt lat="45.74536" lon="4.60769">
        <ele>732.08166503906</ele>
        <time>2021-01-28T15:32:24.072Z</time>
      </trkpt>
      <trkpt lat="45.74498" lon="4.60714">
        <ele>737.49084472656</ele>
        <time>2021-01-28T15:32:27.918Z</time>
      </trkpt>
      <trkpt lat="45.74329" lon="4.60595">
        <ele>774.2783203125</ele>
        <time>2021-01-28T15:32:31.826Z</time>
      </trkpt>
      <trkpt lat="45.74257" lon="4.60561">
        <ele>784.08459472656</ele>
        <time>2021-01-28T15:32:35.760Z</time>
      </trkpt>
      <trkpt lat="45.74212" lon="4.60511">
        <ele>791.05285644531</ele>
        <time>2021-01-28T15:32:39.713Z</time>
      </trkpt>
      <trkpt lat="45.74162" lon="4.60429">
        <ele>805.84490966797</ele>
        <time>2021-01-28T15:32:43.691Z</time>
      </trkpt>
      <trkpt lat="45.74121" lon="4.60378">
        <ele>819.88958740234</ele>
        <time>2021-01-28T15:32:47.687Z</time>
      </trkpt>
      <trkpt lat="45.74079" lon="4.60383">
        <ele>831.29516601562</ele>
        <time>2021-01-28T15:32:51.697Z</time>
      </trkpt>
      <trkpt lat="45.74016" lon="4.60353">
        <ele>842.58294677734</ele>
        <time>2021-01-28T15:32:55.730Z</time>
      </trkpt>
      <trkpt lat="45.73843" lon="4.60249">
        <ele>828.61297607422</ele>
        <time>2021-01-28T15:32:59.825Z</time>
      </trkpt>
      <trkpt lat="45.7381" lon="4.60217">
        <ele>825.39392089844</ele>
        <time>2021-01-28T15:33:03.933Z</time>
      </trkpt>
      <trkpt lat="45.73808" lon="4.60227">
        <ele>826.23474121094</ele>
        <time>2021-01-28T15:33:08.044Z</time>
      </trkpt>
      <trkpt lat="45.73796" lon="4.60216">
        <ele>825.55139160156</ele>
        <time>2021-01-28T15:33:12.160Z</time>
      </trkpt>
      <trkpt lat="45.7368" lon="4.60092">
        <ele>826.35095214844</ele>
        <time>2021-01-28T15:33:16.324Z</time>
      </trkpt>
      <trkpt lat="45.73665" lon="4.60059">
        <ele>822.96569824219</ele>
        <time>2021-01-28T15:33:20.497Z</time>
      </trkpt>
      <trkpt lat="45.73635" lon="4.60017">
        <ele>817.18286132812</ele>
        <time>2021-01-28T15:33:24.684Z</time>
      </trkpt>
      <trkpt lat="45.73602" lon="4.5991">
        <ele>803.57189941406</ele>
        <time>2021-01-28T15:33:28.899Z</time>
      </trkpt>
      <trkpt lat="45.73498" lon="4.59681">
        <ele>774.80743408203</ele>
        <time>2021-01-28T15:33:33.177Z</time>
      </trkpt>
      <trkpt lat="45.7344" lon="4.59476">
        <ele>772.8330078125</ele>
        <time>2021-01-28T15:33:37.507Z</time>
      </trkpt>
      <trkpt lat="45.73398" lon="4.59395">
        <ele>765.12701416016</ele>
        <time>2021-01-28T15:33:41.861Z</time>
      </trkpt>
      <trkpt lat="45.73387" lon="4.59388">
        <ele>765.314453125</ele>
        <time>2021-01-28T15:33:46.219Z</time>
      </trkpt>
      <trkpt lat="45.73376" lon="4.59381">
        <ele>765.17120361328</ele>
        <time>2021-01-28T15:33:50.581Z</time>
      </trkpt>
      <trkpt lat="45.73309" lon="4.59467">
        <ele>765.78497314453</ele>
        <time>2021-01-28T15:33:54.973Z</time>
      </trkpt>
      <trkpt lat="45.73308" lon="4.59489">
        <ele>770.83020019531</ele>
        <time>2021-01-28T15:33:59.370Z</time>
      </trkpt>
      <trkpt lat="45.73294" lon="4.59519">
        <ele>773.91296386719</ele>
        <time>2021-01-28T15:34:03.775Z</time>
      </trkpt>
      <trkpt lat="45.73239" lon="4.5957">
        <ele>776.01330566406</ele>
        <time>2021-01-28T15:34:08.202Z</time>
      </trkpt>
      <trkpt lat="45.73216" lon="4.59571">
        <ele>775.64337158203</ele>
        <time>2021-01-28T15:34:12.637Z</time>
      </trkpt>
      <trkpt lat="45.73169" lon="4.59547">
        <ele>774.57458496094</ele>
        <time>2021-01-28T15:34:17.089Z</time>
      </trkpt>
      <trkpt lat="45.73096" lon="4.59497">
        <ele>777.89569091797</ele>
        <time>2021-01-28T15:34:21.568Z</time>
      </trkpt>
      <trkpt lat="45.73096" lon="4.59497">
        <ele>777.89782714844</ele>
        <time>2021-01-28T15:34:26.047Z</time>
      </trkpt>
      <trkpt lat="45.73044" lon="4.59503">
        <ele>789.65362548828</ele>
        <time>2021-01-28T15:34:30.543Z</time>
      </trkpt>
      <trkpt lat="45.72957" lon="4.59468">
        <ele>802.47692871094</ele>
        <time>2021-01-28T15:34:35.069Z</time>
      </trkpt>
      <trkpt lat="45.72896" lon="4.59415">
        <ele>813.99249267578</ele>
        <time>2021-01-28T15:34:39.619Z</time>
      </trkpt>
      <trkpt lat="45.72861" lon="4.59363">
        <ele>811.53363037109</ele>
        <time>2021-01-28T15:34:44.186Z</time>
      </trkpt>
      <trkpt lat="45.72797" lon="4.59329">
        <ele>816.57818603516</ele>
        <time>2021-01-28T15:34:48.775Z</time>
      </trkpt>
      <trkpt lat="45.7277" lon="4.59299">
        <ele>815.88531494141</ele>
        <time>2021-01-28T15:34:53.376Z</time>
      </trkpt>
      <trkpt lat="45.72643" lon="4.59237">
        <ele>818.98889160156</ele>
        <time>2021-01-28T15:34:58.022Z</time>
      </trkpt>
      <trkpt lat="45.72606" lon="4.59232">
        <ele>816.35302734375</ele>
        <time>2021-01-28T15:35:02.680Z</time>
      </trkpt>
      <trkpt lat="45.72559" lon="4.59232">
        <ele>814.00054931641</ele>
        <time>2021-01-28T15:35:07.354Z</time>
      </trkpt>
      <trkpt lat="45.72288" lon="4.59279">
        <ele>830</ele>
        <time>2021-01-28T15:35:12.119Z</time>
      </trkpt>
      <trkpt lat="45.72289" lon="4.59269">
        <ele>830</ele>
        <time>2021-01-28T15:35:16.886Z</time>
      </trkpt>
      <trkpt lat="45.72289" lon="4.59269">
        <ele>830</ele>
        <time>2021-01-28T15:35:21.653Z</time>
      </trkpt>
      <trkpt lat="45.7231" lon="4.59152">
        <ele>824.82922363281</ele>
        <time>2021-01-28T15:35:26.448Z</time>
      </trkpt>
      <trkpt lat="45.72326" lon="4.59104">
        <ele>825.80731201172</ele>
        <time>2021-01-28T15:35:31.256Z</time>
      </trkpt>
      <trkpt lat="45.72433" lon="4.58935">
        <ele>826.01165771484</ele>
        <time>2021-01-28T15:35:36.117Z</time>
      </trkpt>
      <trkpt lat="45.7246" lon="4.58868">
        <ele>825.01580810547</ele>
        <time>2021-01-28T15:35:40.996Z</time>
      </trkpt>
      <trkpt lat="45.72468" lon="4.58797">
        <ele>826.79083251953</ele>
        <time>2021-01-28T15:35:45.892Z</time>
      </trkpt>
      <trkpt lat="45.72468" lon="4.58791">
        <ele>826.79083251953</ele>
        <time>2021-01-28T15:35:50.789Z</time>
      </trkpt>
      <trkpt lat="45.72458" lon="4.58744">
        <ele>828.3095703125</ele>
        <time>2021-01-28T15:35:55.698Z</time>
      </trkpt>
      <trkpt lat="45.72399" lon="4.58596">
        <ele>835.61779785156</ele>
        <time>2021-01-28T15:36:00.647Z</time>
      </trkpt>
      <trkpt lat="45.72372" lon="4.58508">
        <ele>839.53210449219</ele>
        <time>2021-01-28T15:36:05.618Z</time>
      </trkpt>
      <trkpt lat="45.72362" lon="4.58381">
        <ele>831.62310791016</ele>
        <time>2021-01-28T15:36:10.619Z</time>
      </trkpt>
      <trkpt lat="45.72362" lon="4.58381">
        <ele>831.62701416016</ele>
        <time>2021-01-28T15:36:15.620Z</time>
      </trkpt>
      <trkpt lat="45.72338" lon="4.58229">
        <ele>841.27008056641</ele>
        <time>2021-01-28T15:36:20.657Z</time>
      </trkpt>
      <trkpt lat="45.72333" lon="4.582">
        <ele>842.05902099609</ele>
        <time>2021-01-28T15:36:25.701Z</time>
      </trkpt>
      <trkpt lat="45.72333" lon="4.582">
        <ele>842.06140136719</ele>
        <time>2021-01-28T15:36:30.745Z</time>
      </trkpt>
      <trkpt lat="45.72317" lon="4.58074">
        <ele>843.35632324219</ele>
        <time>2021-01-28T15:36:35.819Z</time>
      </trkpt>
      <trkpt lat="45.72267" lon="4.57943">
        <ele>856.64831542969</ele>
        <time>2021-01-28T15:36:40.928Z</time>
      </trkpt>
      <trkpt lat="45.72248" lon="4.57909">
        <ele>857.54052734375</ele>
        <time>2021-01-28T15:36:46.047Z</time>
      </trkpt>
      <trkpt lat="45.72184" lon="4.5781">
        <ele>850.85296630859</ele>
        <time>2021-01-28T15:36:51.197Z</time>
      </trkpt>
      <trkpt lat="45.72148" lon="4.57723">
        <ele>841.29296875</ele>
        <time>2021-01-28T15:36:56.371Z</time>
      </trkpt>
      <trkpt lat="45.72127" lon="4.57645">
        <ele>835.67602539062</ele>
        <time>2021-01-28T15:37:01.565Z</time>
      </trkpt>
      <trkpt lat="45.72128" lon="4.57644">
        <ele>835.86779785156</ele>
        <time>2021-01-28T15:37:06.759Z</time>
      </trkpt>
      <trkpt lat="45.72113" lon="4.57567">
        <ele>832.30718994141</ele>
        <time>2021-01-28T15:37:11.971Z</time>
      </trkpt>
      <trkpt lat="45.7209" lon="4.57486">
        <ele>828.77044677734</ele>
        <time>2021-01-28T15:37:17.204Z</time>
      </trkpt>
      <trkpt lat="45.72068" lon="4.57432">
        <ele>822.04644775391</ele>
        <time>2021-01-28T15:37:22.451Z</time>
      </trkpt>
      <trkpt lat="45.72055" lon="4.57405">
        <ele>819.05108642578</ele>
        <time>2021-01-28T15:37:27.706Z</time>
      </trkpt>
      <trkpt lat="45.72048" lon="4.57387">
        <ele>818.04547119141</ele>
        <time>2021-01-28T15:37:32.966Z</time>
      </trkpt>
      <trkpt lat="45.72041" lon="4.57358">
        <ele>816.34832763672</ele>
        <time>2021-01-28T15:37:38.233Z</time>
      </trkpt>
      <trkpt lat="45.72042" lon="4.57339">
        <ele>815.88049316406</ele>
        <time>2021-01-28T15:37:43.505Z</time>
      </trkpt>
      <trkpt lat="45.72049" lon="4.57309">
        <ele>814.41424560547</ele>
        <time>2021-01-28T15:37:48.784Z</time>
      </trkpt>
      <trkpt lat="45.72058" lon="4.57281">
        <ele>813.20202636719</ele>
        <time>2021-01-28T15:37:54.070Z</time>
      </trkpt>
      <trkpt lat="45.72069" lon="4.57246">
        <ele>811.71447753906</ele>
        <time>2021-01-28T15:37:59.365Z</time>
      </trkpt>
      <trkpt lat="45.72074" lon="4.57218">
        <ele>809.43078613281</ele>
        <time>2021-01-28T15:38:04.667Z</time>
      </trkpt>
      <trkpt lat="45.72088" lon="4.57076">
        <ele>807.17626953125</ele>
        <time>2021-01-28T15:38:10.002Z</time>
      </trkpt>
      <trkpt lat="45.72091" lon="4.57048">
        <ele>808.45275878906</ele>
        <time>2021-01-28T15:38:15.344Z</time>
      </trkpt>
      <trkpt lat="45.72086" lon="4.56999">
        <ele>809.73156738281</ele>
        <time>2021-01-28T15:38:20.698Z</time>
      </trkpt>
      <trkpt lat="45.72085" lon="4.56965">
        <ele>810.68646240234</ele>
        <time>2021-01-28T15:38:26.059Z</time>
      </trkpt>
      <trkpt lat="45.72088" lon="4.56922">
        <ele>812.66595458984</ele>
        <time>2021-01-28T15:38:31.431Z</time>
      </trkpt>
      <trkpt lat="45.72092" lon="4.56859">
        <ele>813.09112548828</ele>
        <time>2021-01-28T15:38:36.817Z</time>
      </trkpt>
      <trkpt lat="45.72092" lon="4.56834">
        <ele>812.90887451172</ele>
        <time>2021-01-28T15:38:42.209Z</time>
      </trkpt>
      <trkpt lat="45.72088" lon="4.5683">
        <ele>813.10565185547</ele>
        <time>2021-01-28T15:38:47.603Z</time>
      </trkpt>
      <trkpt lat="45.72087" lon="4.5683">
        <ele>813.14752197266</ele>
        <time>2021-01-28T15:38:52.997Z</time>
      </trkpt>
      <trkpt lat="45.72083" lon="4.56818">
        <ele>813.48297119141</ele>
        <time>2021-01-28T15:38:58.394Z</time>
      </trkpt>
      <trkpt lat="45.72039" lon="4.56765">
        <ele>821.3837890625</ele>
        <time>2021-01-28T15:39:03.810Z</time>
      </trkpt>
      <trkpt lat="45.72021" lon="4.56754">
        <ele>826.03509521484</ele>
        <time>2021-01-28T15:39:09.233Z</time>
      </trkpt>
      <trkpt lat="45.71958" lon="4.56762">
        <ele>826.82305908203</ele>
        <time>2021-01-28T15:39:14.677Z</time>
      </trkpt>
      <trkpt lat="45.71926" lon="4.56758">
        <ele>829.50775146484</ele>
        <time>2021-01-28T15:39:20.132Z</time>
      </trkpt>
      <trkpt lat="45.71857" lon="4.56688">
        <ele>850.36505126953</ele>
        <time>2021-01-28T15:39:25.615Z</time>
      </trkpt>
      <trkpt lat="45.71784" lon="4.56671">
        <ele>855.18444824219</ele>
        <time>2021-01-28T15:39:31.122Z</time>
      </trkpt>
      <trkpt lat="45.71735" lon="4.56673">
        <ele>849.23223876953</ele>
        <time>2021-01-28T15:39:36.646Z</time>
      </trkpt>
      <trkpt lat="45.71705" lon="4.56679">
        <ele>847.88732910156</ele>
        <time>2021-01-28T15:39:42.180Z</time>
      </trkpt>
      <trkpt lat="45.71684" lon="4.56699">
        <ele>847.43597412109</ele>
        <time>2021-01-28T15:39:47.722Z</time>
      </trkpt>
      <trkpt lat="45.71655" lon="4.56727">
        <ele>847.91143798828</ele>
        <time>2021-01-28T15:39:53.276Z</time>
      </trkpt>
      <trkpt lat="45.71619" lon="4.567">
        <ele>843.43395996094</ele>
        <time>2021-01-28T15:39:58.843Z</time>
      </trkpt>
      <trkpt lat="45.71521" lon="4.56563">
        <ele>831.23803710938</ele>
        <time>2021-01-28T15:40:04.456Z</time>
      </trkpt>
      <trkpt lat="45.71476" lon="4.56479">
        <ele>821.63806152344</ele>
        <time>2021-01-28T15:40:10.094Z</time>
      </trkpt>
      <trkpt lat="45.71462" lon="4.56419">
        <ele>821.40155029297</ele>
        <time>2021-01-28T15:40:15.747Z</time>
      </trkpt>
      <trkpt lat="45.71429" lon="4.56399">
        <ele>821.82470703125</ele>
        <time>2021-01-28T15:40:21.411Z</time>
      </trkpt>
      <trkpt lat="45.71425" lon="4.56408">
        <ele>822.44311523438</ele>
        <time>2021-01-28T15:40:27.078Z</time>
      </trkpt>
      <trkpt lat="45.71426" lon="4.5648">
        <ele>822.33020019531</ele>
        <time>2021-01-28T15:40:32.762Z</time>
      </trkpt>
      <trkpt lat="45.71411" lon="4.56563">
        <ele>819.26019287109</ele>
        <time>2021-01-28T15:40:38.466Z</time>
      </trkpt>
      <trkpt lat="45.71405" lon="4.56659">
        <ele>816.20269775391</ele>
        <time>2021-01-28T15:40:44.192Z</time>
      </trkpt>
      <trkpt lat="45.71382" lon="4.56706">
        <ele>814.69366455078</ele>
        <time>2021-01-28T15:40:49.932Z</time>
      </trkpt>
      <trkpt lat="45.71366" lon="4.56704">
        <ele>817.85656738281</ele>
        <time>2021-01-28T15:40:55.677Z</time>
      </trkpt>
      <trkpt lat="45.71316" lon="4.56723">
        <ele>828.05786132812</ele>
        <time>2021-01-28T15:41:01.439Z</time>
      </trkpt>
      <trkpt lat="45.71258" lon="4.5676">
        <ele>831.97424316406</ele>
        <time>2021-01-28T15:41:07.223Z</time>
      </trkpt>
      <trkpt lat="45.71205" lon="4.56821">
        <ele>835.81018066406</ele>
        <time>2021-01-28T15:41:13.029Z</time>
      </trkpt>
      <trkpt lat="45.71156" lon="4.56831">
        <ele>841.49780273438</ele>
        <time>2021-01-28T15:41:18.852Z</time>
      </trkpt>
      <trkpt lat="45.71114" lon="4.56806">
        <ele>840.61462402344</ele>
        <time>2021-01-28T15:41:24.690Z</time>
      </trkpt>
      <trkpt lat="45.71051" lon="4.56717">
        <ele>846.93981933594</ele>
        <time>2021-01-28T15:41:30.557Z</time>
      </trkpt>
      <trkpt lat="45.71028" lon="4.56662">
        <ele>849.70318603516</ele>
        <time>2021-01-28T15:41:36.439Z</time>
      </trkpt>
      <trkpt lat="45.71016" lon="4.56604">
        <ele>850.77484130859</ele>
        <time>2021-01-28T15:41:42.335Z</time>
      </trkpt>
      <trkpt lat="45.71015" lon="4.56552">
        <ele>851.59033203125</ele>
        <time>2021-01-28T15:41:48.244Z</time>
      </trkpt>
      <trkpt lat="45.7101" lon="4.56359">
        <ele>868.62030029297</ele>
        <time>2021-01-28T15:41:54.198Z</time>
      </trkpt>
      <trkpt lat="45.71013" lon="4.563">
        <ele>872.92846679688</ele>
        <time>2021-01-28T15:42:00.166Z</time>
      </trkpt>
      <trkpt lat="45.71002" lon="4.5623">
        <ele>878.53277587891</ele>
        <time>2021-01-28T15:42:06.150Z</time>
      </trkpt>
      <trkpt lat="45.70968" lon="4.56149">
        <ele>886.93859863281</ele>
        <time>2021-01-28T15:42:12.156Z</time>
      </trkpt>
      <trkpt lat="45.70912" lon="4.56128">
        <ele>878.79821777344</ele>
        <time>2021-01-28T15:42:18.182Z</time>
      </trkpt>
      <trkpt lat="45.70743" lon="4.56028">
        <ele>882.78643798828</ele>
        <time>2021-01-28T15:42:24.269Z</time>
      </trkpt>
      <trkpt lat="45.70723" lon="4.5596">
        <ele>890.35821533203</ele>
        <time>2021-01-28T15:42:30.373Z</time>
      </trkpt>
      <trkpt lat="45.70723" lon="4.5596">
        <ele>890.35729980469</ele>
        <time>2021-01-28T15:42:36.477Z</time>
      </trkpt>
      <trkpt lat="45.70691" lon="4.55851">
        <ele>895.03295898438</ele>
        <time>2021-01-28T15:42:42.609Z</time>
      </trkpt>
      <trkpt lat="45.70624" lon="4.55979">
        <ele>889.22943115234</ele>
        <time>2021-01-28T15:42:48.778Z</time>
      </trkpt>
      <trkpt lat="45.70509" lon="4.56138">
        <ele>875.11938476562</ele>
        <time>2021-01-28T15:42:55.000Z</time>
      </trkpt>
      <trkpt lat="45.7049" lon="4.56185">
        <ele>872.67236328125</ele>
        <time>2021-01-28T15:43:01.235Z</time>
      </trkpt>
      <trkpt lat="45.70468" lon="4.56217">
        <ele>869.19012451172</ele>
        <time>2021-01-28T15:43:07.480Z</time>
      </trkpt>
      <trkpt lat="45.70421" lon="4.56258">
        <ele>867.64404296875</ele>
        <time>2021-01-28T15:43:13.744Z</time>
      </trkpt>
      <trkpt lat="45.70331" lon="4.56327">
        <ele>867.82159423828</ele>
        <time>2021-01-28T15:43:20.042Z</time>
      </trkpt>
      <trkpt lat="45.70275" lon="4.56355">
        <ele>868.70831298828</ele>
        <time>2021-01-28T15:43:26.360Z</time>
      </trkpt>
      <trkpt lat="45.70206" lon="4.56361">
        <ele>870.75341796875</ele>
        <time>2021-01-28T15:43:32.701Z</time>
      </trkpt>
      <trkpt lat="45.7016" lon="4.56398">
        <ele>876.09197998047</ele>
        <time>2021-01-28T15:43:39.059Z</time>
      </trkpt>
      <trkpt lat="45.70149" lon="4.56433">
        <ele>878.67639160156</ele>
        <time>2021-01-28T15:43:45.426Z</time>
      </trkpt>
      <trkpt lat="45.70149" lon="4.56433">
        <ele>878.67578125</ele>
        <time>2021-01-28T15:43:51.793Z</time>
      </trkpt>
      <trkpt lat="45.70143" lon="4.56452">
        <ele>879.05364990234</ele>
        <time>2021-01-28T15:43:58.165Z</time>
      </trkpt>
      <trkpt lat="45.70139" lon="4.56508">
        <ele>877.57385253906</ele>
        <time>2021-01-28T15:44:04.550Z</time>
      </trkpt>
      <trkpt lat="45.70147" lon="4.56555">
        <ele>869.02978515625</ele>
        <time>2021-01-28T15:44:10.947Z</time>
      </trkpt>
      <trkpt lat="45.70196" lon="4.56639">
        <ele>858.16442871094</ele>
        <time>2021-01-28T15:44:17.369Z</time>
      </trkpt>
      <trkpt lat="45.70223" lon="4.56648">
        <ele>860.81427001953</ele>
        <time>2021-01-28T15:44:23.801Z</time>
      </trkpt>
      <trkpt lat="45.7027" lon="4.56692">
        <ele>851.68823242188</ele>
        <time>2021-01-28T15:44:30.251Z</time>
      </trkpt>
      <trkpt lat="45.7029" lon="4.56765">
        <ele>846.16064453125</ele>
        <time>2021-01-28T15:44:36.719Z</time>
      </trkpt>
      <trkpt lat="45.70317" lon="4.56832">
        <ele>844.77777099609</ele>
        <time>2021-01-28T15:44:43.205Z</time>
      </trkpt>
      <trkpt lat="45.70367" lon="4.57158">
        <ele>823.28234863281</ele>
        <time>2021-01-28T15:44:49.769Z</time>
      </trkpt>
      <trkpt lat="45.70367" lon="4.57158">
        <ele>823.28021240234</ele>
        <time>2021-01-28T15:44:56.333Z</time>
      </trkpt>
      <trkpt lat="45.70363" lon="4.57458">
        <ele>797.47125244141</ele>
        <time>2021-01-28T15:45:02.968Z</time>
      </trkpt>
      <trkpt lat="45.70402" lon="4.57598">
        <ele>789.04699707031</ele>
        <time>2021-01-28T15:45:09.638Z</time>
      </trkpt>
      <trkpt lat="45.70437" lon="4.57637">
        <ele>785.98956298828</ele>
        <time>2021-01-28T15:45:16.323Z</time>
      </trkpt>
      <trkpt lat="45.70479" lon="4.57718">
        <ele>779.13610839844</ele>
        <time>2021-01-28T15:45:23.031Z</time>
      </trkpt>
      <trkpt lat="45.70513" lon="4.57794">
        <ele>770.86871337891</ele>
        <time>2021-01-28T15:45:29.760Z</time>
      </trkpt>
      <trkpt lat="45.70587" lon="4.5792">
        <ele>754.34057617188</ele>
        <time>2021-01-28T15:45:36.527Z</time>
      </trkpt>
      <trkpt lat="45.70641" lon="4.58038">
        <ele>745.09729003906</ele>
        <time>2021-01-28T15:45:43.327Z</time>
      </trkpt>
      <trkpt lat="45.70667" lon="4.58118">
        <ele>741.05377197266</ele>
        <time>2021-01-28T15:45:50.148Z</time>
      </trkpt>
      <trkpt lat="45.70692" lon="4.58238">
        <ele>733.43133544922</ele>
        <time>2021-01-28T15:45:56.998Z</time>
      </trkpt>
      <trkpt lat="45.70693" lon="4.5829">
        <ele>730.12469482422</ele>
        <time>2021-01-28T15:46:03.860Z</time>
      </trkpt>
      <trkpt lat="45.70679" lon="4.58416">
        <ele>723.18115234375</ele>
        <time>2021-01-28T15:46:10.752Z</time>
      </trkpt>
      <trkpt lat="45.70679" lon="4.58416">
        <ele>723.17999267578</ele>
        <time>2021-01-28T15:46:17.644Z</time>
      </trkpt>
      <trkpt lat="45.70676" lon="4.58451">
        <ele>721.44989013672</ele>
        <time>2021-01-28T15:46:24.544Z</time>
      </trkpt>
      <trkpt lat="45.70667" lon="4.58476">
        <ele>720.93347167969</ele>
        <time>2021-01-28T15:46:31.451Z</time>
      </trkpt>
      <trkpt lat="45.70677" lon="4.58509">
        <ele>719.59936523438</ele>
        <time>2021-01-28T15:46:38.367Z</time>
      </trkpt>
      <trkpt lat="45.70686" lon="4.5862">
        <ele>720.42175292969</ele>
        <time>2021-01-28T15:46:45.309Z</time>
      </trkpt>
      <trkpt lat="45.70686" lon="4.5862">
        <ele>720.42297363281</ele>
        <time>2021-01-28T15:46:52.251Z</time>
      </trkpt>
      <trkpt lat="45.70689" lon="4.58652">
        <ele>722.39685058594</ele>
        <time>2021-01-28T15:46:59.200Z</time>
      </trkpt>
      <trkpt lat="45.70663" lon="4.58656">
        <ele>723.18835449219</ele>
        <time>2021-01-28T15:47:06.158Z</time>
      </trkpt>
      <trkpt lat="45.70661" lon="4.58666">
        <ele>723.49725341797</ele>
        <time>2021-01-28T15:47:13.119Z</time>
      </trkpt>
      <trkpt lat="45.70661" lon="4.58666">
        <ele>723.49755859375</ele>
        <time>2021-01-28T15:47:20.080Z</time>
      </trkpt>
      <trkpt lat="45.70664" lon="4.5877">
        <ele>726</ele>
        <time>2021-01-28T15:47:27.065Z</time>
      </trkpt>
      <trkpt lat="45.70634" lon="4.58834">
        <ele>727.07897949219</ele>
        <time>2021-01-28T15:47:34.068Z</time>
      </trkpt>
      <trkpt lat="45.70626" lon="4.58874">
        <ele>724.86169433594</ele>
        <time>2021-01-28T15:47:41.081Z</time>
      </trkpt>
      <trkpt lat="45.70624" lon="4.58907">
        <ele>723.40740966797</ele>
        <time>2021-01-28T15:47:48.101Z</time>
      </trkpt>
      <trkpt lat="45.70638" lon="4.58962">
        <ele>726.97357177734</ele>
        <time>2021-01-28T15:47:55.135Z</time>
      </trkpt>
      <trkpt lat="45.7064" lon="4.59002">
        <ele>727.76959228516</ele>
        <time>2021-01-28T15:48:02.178Z</time>
      </trkpt>
      <trkpt lat="45.7064" lon="4.59008">
        <ele>727.58953857422</ele>
        <time>2021-01-28T15:48:09.223Z</time>
      </trkpt>
      <trkpt lat="45.70633" lon="4.59076">
        <ele>724.83636474609</ele>
        <time>2021-01-28T15:48:16.284Z</time>
      </trkpt>
      <trkpt lat="45.70632" lon="4.59086">
        <ele>725.10662841797</ele>
        <time>2021-01-28T15:48:23.347Z</time>
      </trkpt>
      <trkpt lat="45.70621" lon="4.59137">
        <ele>727.02001953125</ele>
        <time>2021-01-28T15:48:30.423Z</time>
      </trkpt>
      <trkpt lat="45.7055" lon="4.59259">
        <ele>730.56909179688</ele>
        <time>2021-01-28T15:48:37.536Z</time>
      </trkpt>
      <trkpt lat="45.70459" lon="4.59319">
        <ele>729.75561523438</ele>
        <time>2021-01-28T15:48:44.682Z</time>
      </trkpt>
      <trkpt lat="45.70404" lon="4.59483">
        <ele>740.80047607422</ele>
        <time>2021-01-28T15:48:51.871Z</time>
      </trkpt>
      <trkpt lat="45.70389" lon="4.59578">
        <ele>751.25402832031</ele>
        <time>2021-01-28T15:48:59.082Z</time>
      </trkpt>
      <trkpt lat="45.70347" lon="4.59647">
        <ele>757.05096435547</ele>
        <time>2021-01-28T15:49:06.315Z</time>
      </trkpt>
      <trkpt lat="45.70347" lon="4.59647">
        <ele>757.04913330078</ele>
        <time>2021-01-28T15:49:13.548Z</time>
      </trkpt>
      <trkpt lat="45.70324" lon="4.59683">
        <ele>762.94921875</ele>
        <time>2021-01-28T15:49:20.792Z</time>
      </trkpt>
      <trkpt lat="45.70313" lon="4.59717">
        <ele>769.14154052734</ele>
        <time>2021-01-28T15:49:28.045Z</time>
      </trkpt>
      <trkpt lat="45.70284" lon="4.59843">
        <ele>783.32867431641</ele>
        <time>2021-01-28T15:49:35.329Z</time>
      </trkpt>
      <trkpt lat="45.7028" lon="4.59894">
        <ele>789.40838623047</ele>
        <time>2021-01-28T15:49:42.625Z</time>
      </trkpt>
      <trkpt lat="45.70264" lon="4.60001">
        <ele>798.14569091797</ele>
        <time>2021-01-28T15:49:49.946Z</time>
      </trkpt>
      <trkpt lat="45.70244" lon="4.60047">
        <ele>797.96948242188</ele>
        <time>2021-01-28T15:49:57.280Z</time>
      </trkpt>
      <trkpt lat="45.70205" lon="4.60116">
        <ele>799.00720214844</ele>
        <time>2021-01-28T15:50:04.635Z</time>
      </trkpt>
      <trkpt lat="45.70155" lon="4.60171">
        <ele>793.22528076172</ele>
        <time>2021-01-28T15:50:12.011Z</time>
      </trkpt>
      <trkpt lat="45.70073" lon="4.60289">
        <ele>783.06634521484</ele>
        <time>2021-01-28T15:50:19.426Z</time>
      </trkpt>
      <trkpt lat="45.70043" lon="4.60364">
        <ele>781.59344482422</ele>
        <time>2021-01-28T15:50:26.861Z</time>
      </trkpt>
      <trkpt lat="45.70036" lon="4.60388">
        <ele>780.64221191406</ele>
        <time>2021-01-28T15:50:34.302Z</time>
      </trkpt>
      <trkpt lat="45.70047" lon="4.60445">
        <ele>782.25189208984</ele>
        <time>2021-01-28T15:50:41.757Z</time>
      </trkpt>
      <trkpt lat="45.70087" lon="4.60515">
        <ele>785.97894287109</ele>
        <time>2021-01-28T15:50:49.233Z</time>
      </trkpt>
      <trkpt lat="45.70144" lon="4.60586">
        <ele>780.04907226562</ele>
        <time>2021-01-28T15:50:56.734Z</time>
      </trkpt>
      <trkpt lat="45.70156" lon="4.60676">
        <ele>772.45831298828</ele>
        <time>2021-01-28T15:51:04.256Z</time>
      </trkpt>
      <trkpt lat="45.70171" lon="4.6075">
        <ele>774.86236572266</ele>
        <time>2021-01-28T15:51:11.796Z</time>
      </trkpt>
      <trkpt lat="45.70181" lon="4.60757">
        <ele>775.13958740234</ele>
        <time>2021-01-28T15:51:19.340Z</time>
      </trkpt>
      <trkpt lat="45.7023" lon="4.60764">
        <ele>773.46252441406</ele>
        <time>2021-01-28T15:51:26.901Z</time>
      </trkpt>
      <trkpt lat="45.70279" lon="4.6084">
        <ele>761.06317138672</ele>
        <time>2021-01-28T15:51:34.486Z</time>
      </trkpt>
      <trkpt lat="45.70297" lon="4.60899">
        <ele>756.91455078125</ele>
        <time>2021-01-28T15:51:42.086Z</time>
      </trkpt>
      <trkpt lat="45.70317" lon="4.6121">
        <ele>749.92932128906</ele>
        <time>2021-01-28T15:51:49.759Z</time>
      </trkpt>
      <trkpt lat="45.70337" lon="4.61372">
        <ele>737.27807617188</ele>
        <time>2021-01-28T15:51:57.470Z</time>
      </trkpt>
      <trkpt lat="45.70363" lon="4.61443">
        <ele>724.37951660156</ele>
        <time>2021-01-28T15:52:05.200Z</time>
      </trkpt>
      <trkpt lat="45.70363" lon="4.61443">
        <ele>724.38250732422</ele>
        <time>2021-01-28T15:52:12.930Z</time>
      </trkpt>
      <trkpt lat="45.70384" lon="4.61502">
        <ele>720.51525878906</ele>
        <time>2021-01-28T15:52:20.676Z</time>
      </trkpt>
      <trkpt lat="45.70402" lon="4.6155">
        <ele>714.78881835938</ele>
        <time>2021-01-28T15:52:28.434Z</time>
      </trkpt>
      <trkpt lat="45.70424" lon="4.61578">
        <ele>706.49847412109</ele>
        <time>2021-01-28T15:52:36.202Z</time>
      </trkpt>
      <trkpt lat="45.70467" lon="4.61609">
        <ele>695.96240234375</ele>
        <time>2021-01-28T15:52:43.986Z</time>
      </trkpt>
      <trkpt lat="45.70496" lon="4.61644">
        <ele>689.75115966797</ele>
        <time>2021-01-28T15:52:51.783Z</time>
      </trkpt>
      <trkpt lat="45.7052" lon="4.61655">
        <ele>686.50134277344</ele>
        <time>2021-01-28T15:52:59.588Z</time>
      </trkpt>
      <trkpt lat="45.70534" lon="4.61637">
        <ele>684.63677978516</ele>
        <time>2021-01-28T15:53:07.399Z</time>
      </trkpt>
      <trkpt lat="45.70566" lon="4.61621">
        <ele>680.76263427734</ele>
        <time>2021-01-28T15:53:15.222Z</time>
      </trkpt>
      <trkpt lat="45.70605" lon="4.61623">
        <ele>677.55377197266</ele>
        <time>2021-01-28T15:53:23.058Z</time>
      </trkpt>
      <trkpt lat="45.70659" lon="4.61667">
        <ele>676</ele>
        <time>2021-01-28T15:53:30.915Z</time>
      </trkpt>
      <trkpt lat="45.70664" lon="4.61713">
        <ele>675.28765869141</ele>
        <time>2021-01-28T15:53:38.783Z</time>
      </trkpt>
      <trkpt lat="45.70693" lon="4.61924">
        <ele>661.11505126953</ele>
        <time>2021-01-28T15:53:46.701Z</time>
      </trkpt>
      <trkpt lat="45.7069" lon="4.61968">
        <ele>658.93395996094</ele>
        <time>2021-01-28T15:53:54.629Z</time>
      </trkpt>
      <trkpt lat="45.70678" lon="4.62024">
        <ele>655.81201171875</ele>
        <time>2021-01-28T15:54:02.571Z</time>
      </trkpt>
      <trkpt lat="45.70678" lon="4.62076">
        <ele>653.17260742188</ele>
        <time>2021-01-28T15:54:10.525Z</time>
      </trkpt>
      <trkpt lat="45.70665" lon="4.62129">
        <ele>650.74645996094</ele>
        <time>2021-01-28T15:54:18.492Z</time>
      </trkpt>
      <trkpt lat="45.70668" lon="4.62171">
        <ele>648.59674072266</ele>
        <time>2021-01-28T15:54:26.469Z</time>
      </trkpt>
      <trkpt lat="45.70668" lon="4.62171">
        <ele>648.59857177734</ele>
        <time>2021-01-28T15:54:34.446Z</time>
      </trkpt>
      <trkpt lat="45.7067" lon="4.62197">
        <ele>646.78515625</ele>
        <time>2021-01-28T15:54:42.429Z</time>
      </trkpt>
      <trkpt lat="45.70691" lon="4.62239">
        <ele>643.03479003906</ele>
        <time>2021-01-28T15:54:50.424Z</time>
      </trkpt>
      <trkpt lat="45.70691" lon="4.62239">
        <ele>643.03479003906</ele>
        <time>2021-01-28T15:54:58.419Z</time>
      </trkpt>
      <trkpt lat="45.70699" lon="4.6228">
        <ele>639.04327392578</ele>
        <time>2021-01-28T15:55:06.424Z</time>
      </trkpt>
      <trkpt lat="45.7069" lon="4.62311">
        <ele>632.91491699219</ele>
        <time>2021-01-28T15:55:14.437Z</time>
      </trkpt>
      <trkpt lat="45.70713" lon="4.62344">
        <ele>630.3828125</ele>
        <time>2021-01-28T15:55:22.461Z</time>
      </trkpt>
      <trkpt lat="45.70711" lon="4.62389">
        <ele>623.67492675781</ele>
        <time>2021-01-28T15:55:30.495Z</time>
      </trkpt>
      <trkpt lat="45.70731" lon="4.62403">
        <ele>622.90814208984</ele>
        <time>2021-01-28T15:55:38.537Z</time>
      </trkpt>
      <trkpt lat="45.70735" lon="4.62425">
        <ele>619.20953369141</ele>
        <time>2021-01-28T15:55:46.584Z</time>
      </trkpt>
      <trkpt lat="45.7077" lon="4.62461">
        <ele>608.57623291016</ele>
        <time>2021-01-28T15:55:54.645Z</time>
      </trkpt>
      <trkpt lat="45.70786" lon="4.62451">
        <ele>605.36749267578</ele>
        <time>2021-01-28T15:56:02.712Z</time>
      </trkpt>
      <trkpt lat="45.70802" lon="4.62409">
        <ele>602.7294921875</ele>
        <time>2021-01-28T15:56:10.790Z</time>
      </trkpt>
      <trkpt lat="45.70809" lon="4.62405">
        <ele>599.37017822266</ele>
        <time>2021-01-28T15:56:18.871Z</time>
      </trkpt>
      <trkpt lat="45.70817" lon="4.62418">
        <ele>597.37036132812</ele>
        <time>2021-01-28T15:56:26.956Z</time>
      </trkpt>
      <trkpt lat="45.70824" lon="4.62478">
        <ele>596.02111816406</ele>
        <time>2021-01-28T15:56:35.055Z</time>
      </trkpt>
      <trkpt lat="45.7084" lon="4.62504">
        <ele>590.75561523438</ele>
        <time>2021-01-28T15:56:43.162Z</time>
      </trkpt>
      <trkpt lat="45.70858" lon="4.62545">
        <ele>584.21319580078</ele>
        <time>2021-01-28T15:56:51.280Z</time>
      </trkpt>
      <trkpt lat="45.70874" lon="4.62565">
        <ele>581.35760498047</ele>
        <time>2021-01-28T15:56:59.406Z</time>
      </trkpt>
      <trkpt lat="45.70903" lon="4.62578">
        <ele>579.97845458984</ele>
        <time>2021-01-28T15:57:07.542Z</time>
      </trkpt>
      <trkpt lat="45.70949" lon="4.62578">
        <ele>577.42669677734</ele>
        <time>2021-01-28T15:57:15.693Z</time>
      </trkpt>
      <trkpt lat="45.70995" lon="4.62628">
        <ele>568.47503662109</ele>
        <time>2021-01-28T15:57:23.863Z</time>
      </trkpt>
      <trkpt lat="45.71005" lon="4.62632">
        <ele>566.62316894531</ele>
        <time>2021-01-28T15:57:32.037Z</time>
      </trkpt>
      <trkpt lat="45.71065" lon="4.62596">
        <ele>559.24841308594</ele>
        <time>2021-01-28T15:57:40.232Z</time>
      </trkpt>
      <trkpt lat="45.71067" lon="4.62587">
        <ele>557.39050292969</ele>
        <time>2021-01-28T15:57:48.430Z</time>
      </trkpt>
      <trkpt lat="45.71053" lon="4.62578">
        <ele>557.97198486328</ele>
        <time>2021-01-28T15:57:56.633Z</time>
      </trkpt>
      <trkpt lat="45.7104" lon="4.62557">
        <ele>556.51531982422</ele>
        <time>2021-01-28T15:58:04.842Z</time>
      </trkpt>
      <trkpt lat="45.71027" lon="4.62502">
        <ele>551.55096435547</ele>
        <time>2021-01-28T15:58:13.065Z</time>
      </trkpt>
      <trkpt lat="45.71033" lon="4.62493">
        <ele>547.84411621094</ele>
        <time>2021-01-28T15:58:21.291Z</time>
      </trkpt>
      <trkpt lat="45.7106" lon="4.62503">
        <ele>545.08734130859</ele>
        <time>2021-01-28T15:58:29.526Z</time>
      </trkpt>
      <trkpt lat="45.71133" lon="4.62495">
        <ele>526.79699707031</ele>
        <time>2021-01-28T15:58:37.785Z</time>
      </trkpt>
      <trkpt lat="45.71113" lon="4.62479">
        <ele>526.69366455078</ele>
        <time>2021-01-28T15:58:46.052Z</time>
      </trkpt>
      <trkpt lat="45.71052" lon="4.62396">
        <ele>525.85864257812</ele>
        <time>2021-01-28T15:58:54.347Z</time>
      </trkpt>
      <trkpt lat="45.70999" lon="4.62338">
        <ele>536.7548828125</ele>
        <time>2021-01-28T15:59:02.665Z</time>
      </trkpt>
      <trkpt lat="45.70976" lon="4.62277">
        <ele>541.91625976562</ele>
        <time>2021-01-28T15:59:10.999Z</time>
      </trkpt>
      <trkpt lat="45.70969" lon="4.62214">
        <ele>545.18420410156</ele>
        <time>2021-01-28T15:59:19.348Z</time>
      </trkpt>
      <trkpt lat="45.70971" lon="4.62155">
        <ele>545.99401855469</ele>
        <time>2021-01-28T15:59:27.710Z</time>
      </trkpt>
      <trkpt lat="45.71001" lon="4.62058">
        <ele>540.58099365234</ele>
        <time>2021-01-28T15:59:36.097Z</time>
      </trkpt>
      <trkpt lat="45.71023" lon="4.62014">
        <ele>536.46862792969</ele>
        <time>2021-01-28T15:59:44.497Z</time>
      </trkpt>
      <trkpt lat="45.71025" lon="4.62007">
        <ele>537.15399169922</ele>
        <time>2021-01-28T15:59:52.899Z</time>
      </trkpt>
      <trkpt lat="45.71025" lon="4.62007">
        <ele>537.15155029297</ele>
        <time>2021-01-28T16:00:01.301Z</time>
      </trkpt>
      <trkpt lat="45.71041" lon="4.61959">
        <ele>533.88238525391</ele>
        <time>2021-01-28T16:00:09.715Z</time>
      </trkpt>
      <trkpt lat="45.71053" lon="4.61877">
        <ele>532.12060546875</ele>
        <time>2021-01-28T16:00:18.148Z</time>
      </trkpt>
      <trkpt lat="45.71054" lon="4.61729">
        <ele>528.02709960938</ele>
        <time>2021-01-28T16:00:26.616Z</time>
      </trkpt>
      <trkpt lat="45.71043" lon="4.6167">
        <ele>533.52093505859</ele>
        <time>2021-01-28T16:00:35.098Z</time>
      </trkpt>
      <trkpt lat="45.71066" lon="4.61585">
        <ele>528.30291748047</ele>
        <time>2021-01-28T16:00:43.602Z</time>
      </trkpt>
      <trkpt lat="45.71064" lon="4.61493">
        <ele>525.8251953125</ele>
        <time>2021-01-28T16:00:52.127Z</time>
      </trkpt>
      <trkpt lat="45.71046" lon="4.61424">
        <ele>524.36895751953</ele>
        <time>2021-01-28T16:01:00.669Z</time>
      </trkpt>
      <trkpt lat="45.71046" lon="4.61424">
        <ele>524.36560058594</ele>
        <time>2021-01-28T16:01:09.211Z</time>
      </trkpt>
      <trkpt lat="45.71028" lon="4.61373">
        <ele>526.33966064453</ele>
        <time>2021-01-28T16:01:17.767Z</time>
      </trkpt>
      <trkpt lat="45.71016" lon="4.61335">
        <ele>529.25592041016</ele>
        <time>2021-01-28T16:01:26.332Z</time>
      </trkpt>
      <trkpt lat="45.71023" lon="4.61323">
        <ele>528.99700927734</ele>
        <time>2021-01-28T16:01:34.901Z</time>
      </trkpt>
      <trkpt lat="45.7108" lon="4.6125">
        <ele>527.54284667969</ele>
        <time>2021-01-28T16:01:43.495Z</time>
      </trkpt>
      <trkpt lat="45.7109" lon="4.61224">
        <ele>527.71405029297</ele>
        <time>2021-01-28T16:01:52.096Z</time>
      </trkpt>
      <trkpt lat="45.71097" lon="4.61195">
        <ele>527.07897949219</ele>
        <time>2021-01-28T16:02:00.704Z</time>
      </trkpt>
      <trkpt lat="45.71094" lon="4.61149">
        <ele>529.20349121094</ele>
        <time>2021-01-28T16:02:09.323Z</time>
      </trkpt>
      <trkpt lat="45.71094" lon="4.6111">
        <ele>528.22613525391</ele>
        <time>2021-01-28T16:02:17.951Z</time>
      </trkpt>
      <trkpt lat="45.71084" lon="4.61057">
        <ele>527.26641845703</ele>
        <time>2021-01-28T16:02:26.592Z</time>
      </trkpt>
      <trkpt lat="45.71067" lon="4.61012">
        <ele>529.54998779297</ele>
        <time>2021-01-28T16:02:35.245Z</time>
      </trkpt>
      <trkpt lat="45.71102" lon="4.60911">
        <ele>525.48272705078</ele>
        <time>2021-01-28T16:02:43.925Z</time>
      </trkpt>
      <trkpt lat="45.71119" lon="4.60863">
        <ele>530.29583740234</ele>
        <time>2021-01-28T16:02:52.617Z</time>
      </trkpt>
      <trkpt lat="45.71134" lon="4.60864">
        <ele>528.90576171875</ele>
        <time>2021-01-28T16:03:01.314Z</time>
      </trkpt>
      <trkpt lat="45.71151" lon="4.6088">
        <ele>525.03356933594</ele>
        <time>2021-01-28T16:03:10.018Z</time>
      </trkpt>
      <trkpt lat="45.7116" lon="4.6086">
        <ele>526.33453369141</ele>
        <time>2021-01-28T16:03:18.727Z</time>
      </trkpt>
      <trkpt lat="45.71162" lon="4.60802">
        <ele>530.44506835938</ele>
        <time>2021-01-28T16:03:27.450Z</time>
      </trkpt>
      <trkpt lat="45.71187" lon="4.60621">
        <ele>532.71331787109</ele>
        <time>2021-01-28T16:03:36.216Z</time>
      </trkpt>
      <trkpt lat="45.71193" lon="4.60557">
        <ele>543.08245849609</ele>
        <time>2021-01-28T16:03:44.997Z</time>
      </trkpt>
      <trkpt lat="45.71232" lon="4.60417">
        <ele>534.31549072266</ele>
        <time>2021-01-28T16:03:53.813Z</time>
      </trkpt>
      <trkpt lat="45.71248" lon="4.60282">
        <ele>523.41906738281</ele>
        <time>2021-01-28T16:04:02.661Z</time>
      </trkpt>
      <trkpt lat="45.71207" lon="4.60152">
        <ele>533.76800537109</ele>
        <time>2021-01-28T16:04:11.543Z</time>
      </trkpt>
      <trkpt lat="45.71174" lon="4.60087">
        <ele>531.77966308594</ele>
        <time>2021-01-28T16:04:20.444Z</time>
      </trkpt>
      <trkpt lat="45.71135" lon="4.60047">
        <ele>538.7421875</ele>
        <time>2021-01-28T16:04:29.360Z</time>
      </trkpt>
      <trkpt lat="45.71133" lon="4.59995">
        <ele>531.89245605469</ele>
        <time>2021-01-28T16:04:38.289Z</time>
      </trkpt>
      <trkpt lat="45.71142" lon="4.59967">
        <ele>528.72052001953</ele>
        <time>2021-01-28T16:04:47.225Z</time>
      </trkpt>
      <trkpt lat="45.71155" lon="4.59952">
        <ele>527.96453857422</ele>
        <time>2021-01-28T16:04:56.166Z</time>
      </trkpt>
      <trkpt lat="45.71157" lon="4.59949">
        <ele>527.96453857422</ele>
        <time>2021-01-28T16:05:05.108Z</time>
      </trkpt>
      <trkpt lat="45.71237" lon="4.59987">
        <ele>529.38018798828</ele>
        <time>2021-01-28T16:05:14.078Z</time>
      </trkpt>
      <trkpt lat="45.713" lon="4.60061">
        <ele>534.79034423828</ele>
        <time>2021-01-28T16:05:23.075Z</time>
      </trkpt>
      <trkpt lat="45.71332" lon="4.60122">
        <ele>533.49957275391</ele>
        <time>2021-01-28T16:05:32.090Z</time>
      </trkpt>
      <trkpt lat="45.71346" lon="4.60189">
        <ele>525.54223632812</ele>
        <time>2021-01-28T16:05:41.122Z</time>
      </trkpt>
      <trkpt lat="45.71348" lon="4.60242">
        <ele>522.39410400391</ele>
        <time>2021-01-28T16:05:50.166Z</time>
      </trkpt>
      <trkpt lat="45.71359" lon="4.60258">
        <ele>526.23583984375</ele>
        <time>2021-01-28T16:05:59.215Z</time>
      </trkpt>
      <trkpt lat="45.71438" lon="4.60312">
        <ele>546.37768554688</ele>
        <time>2021-01-28T16:06:08.294Z</time>
      </trkpt>
      <trkpt lat="45.71442" lon="4.60313">
        <ele>547.07879638672</ele>
        <time>2021-01-28T16:06:17.374Z</time>
      </trkpt>
      <trkpt lat="45.71442" lon="4.60313">
        <ele>547.08239746094</ele>
        <time>2021-01-28T16:06:26.454Z</time>
      </trkpt>
      <trkpt lat="45.71454" lon="4.60315">
        <ele>547.99200439453</ele>
        <time>2021-01-28T16:06:35.538Z</time>
      </trkpt>
      <trkpt lat="45.71509" lon="4.60289">
        <ele>551.94110107422</ele>
        <time>2021-01-28T16:06:44.641Z</time>
      </trkpt>
      <trkpt lat="45.71555" lon="4.60251">
        <ele>555.71966552734</ele>
        <time>2021-01-28T16:06:53.762Z</time>
      </trkpt>
      <trkpt lat="45.71555" lon="4.60251">
        <ele>555.72204589844</ele>
        <time>2021-01-28T16:07:02.883Z</time>
      </trkpt>
      <trkpt lat="45.71649" lon="4.60176">
        <ele>558.16937255859</ele>
        <time>2021-01-28T16:07:12.040Z</time>
      </trkpt>
      <trkpt lat="45.71662" lon="4.60188">
        <ele>556.97241210938</ele>
        <time>2021-01-28T16:07:21.202Z</time>
      </trkpt>
      <trkpt lat="45.71677" lon="4.60231">
        <ele>557.75799560547</ele>
        <time>2021-01-28T16:07:30.375Z</time>
      </trkpt>
      <trkpt lat="45.71687" lon="4.60287">
        <ele>560.36779785156</ele>
        <time>2021-01-28T16:07:39.562Z</time>
      </trkpt>
      <trkpt lat="45.71703" lon="4.60315">
        <ele>564.53948974609</ele>
        <time>2021-01-28T16:07:48.757Z</time>
      </trkpt>
      <trkpt lat="45.7179" lon="4.60425">
        <ele>563.49279785156</ele>
        <time>2021-01-28T16:07:57.991Z</time>
      </trkpt>
      <trkpt lat="45.7179" lon="4.60442">
        <ele>563.43432617188</ele>
        <time>2021-01-28T16:08:07.229Z</time>
      </trkpt>
      <trkpt lat="45.7178" lon="4.60458">
        <ele>564.14849853516</ele>
        <time>2021-01-28T16:08:16.472Z</time>
      </trkpt>
      <trkpt lat="45.71739" lon="4.60485">
        <ele>563.7119140625</ele>
        <time>2021-01-28T16:08:25.730Z</time>
      </trkpt>
      <trkpt lat="45.71736" lon="4.60492">
        <ele>563.869140625</ele>
        <time>2021-01-28T16:08:34.990Z</time>
      </trkpt>
      <trkpt lat="45.71757" lon="4.60561">
        <ele>570.86785888672</ele>
        <time>2021-01-28T16:08:44.268Z</time>
      </trkpt>
      <trkpt lat="45.71779" lon="4.60579">
        <ele>574.40692138672</ele>
        <time>2021-01-28T16:08:53.554Z</time>
      </trkpt>
      <trkpt lat="45.71791" lon="4.60616">
        <ele>572.29046630859</ele>
        <time>2021-01-28T16:09:02.850Z</time>
      </trkpt>
      <trkpt lat="45.71798" lon="4.60611">
        <ele>574.53002929688</ele>
        <time>2021-01-28T16:09:12.148Z</time>
      </trkpt>
      <trkpt lat="45.71792" lon="4.60578">
        <ele>576.46795654297</ele>
        <time>2021-01-28T16:09:21.454Z</time>
      </trkpt>
      <trkpt lat="45.71805" lon="4.60547">
        <ele>577.69500732422</ele>
        <time>2021-01-28T16:09:30.769Z</time>
      </trkpt>
      <trkpt lat="45.71805" lon="4.60567">
        <ele>578.27319335938</ele>
        <time>2021-01-28T16:09:40.088Z</time>
      </trkpt>
      <trkpt lat="45.71865" lon="4.60611">
        <ele>590.32153320312</ele>
        <time>2021-01-28T16:09:49.430Z</time>
      </trkpt>
      <trkpt lat="45.71896" lon="4.60598">
        <ele>594.00842285156</ele>
        <time>2021-01-28T16:09:58.783Z</time>
      </trkpt>
      <trkpt lat="45.71943" lon="4.60609">
        <ele>604.09338378906</ele>
        <time>2021-01-28T16:10:08.152Z</time>
      </trkpt>
      <trkpt lat="45.71943" lon="4.60609">
        <ele>604.09161376953</ele>
        <time>2021-01-28T16:10:17.521Z</time>
      </trkpt>
      <trkpt lat="45.71967" lon="4.60617">
        <ele>611.39440917969</ele>
        <time>2021-01-28T16:10:26.898Z</time>
      </trkpt>
      <trkpt lat="45.71988" lon="4.60639">
        <ele>619.15563964844</ele>
        <time>2021-01-28T16:10:36.284Z</time>
      </trkpt>
      <trkpt lat="45.71995" lon="4.60659">
        <ele>620.72467041016</ele>
        <time>2021-01-28T16:10:45.675Z</time>
      </trkpt>
      <trkpt lat="45.72013" lon="4.60676">
        <ele>626.03997802734</ele>
        <time>2021-01-28T16:10:55.073Z</time>
      </trkpt>
      <trkpt lat="45.7206" lon="4.60692">
        <ele>642.01641845703</ele>
        <time>2021-01-28T16:11:04.487Z</time>
      </trkpt>
      <trkpt lat="45.72072" lon="4.60682">
        <ele>647.35882568359</ele>
        <time>2021-01-28T16:11:13.906Z</time>
      </trkpt>
      <trkpt lat="45.72089" lon="4.6065">
        <ele>653.90197753906</ele>
        <time>2021-01-28T16:11:23.334Z</time>
      </trkpt>
      <trkpt lat="45.72147" lon="4.60634">
        <ele>669.09222412109</ele>
        <time>2021-01-28T16:11:32.782Z</time>
      </trkpt>
      <trkpt lat="45.72177" lon="4.60611">
        <ele>680.59783935547</ele>
        <time>2021-01-28T16:11:42.241Z</time>
      </trkpt>
      <trkpt lat="45.72248" lon="4.60682">
        <ele>681.47418212891</ele>
        <time>2021-01-28T16:11:51.729Z</time>
      </trkpt>
      <trkpt lat="45.72325" lon="4.60739">
        <ele>678.39672851562</ele>
        <time>2021-01-28T16:12:01.246Z</time>
      </trkpt>
      <trkpt lat="45.72466" lon="4.60709">
        <ele>692.970703125</ele>
        <time>2021-01-28T16:12:10.810Z</time>
      </trkpt>
      <trkpt lat="45.72474" lon="4.60724">
        <ele>688.35150146484</ele>
        <time>2021-01-28T16:12:20.379Z</time>
      </trkpt>
      <trkpt lat="45.72473" lon="4.60791">
        <ele>678.15447998047</ele>
        <time>2021-01-28T16:12:29.964Z</time>
      </trkpt>
      <trkpt lat="45.72446" lon="4.61033">
        <ele>670.79821777344</ele>
        <time>2021-01-28T16:12:39.606Z</time>
      </trkpt>
      <trkpt lat="45.72452" lon="4.61064">
        <ele>674.4970703125</ele>
        <time>2021-01-28T16:12:49.255Z</time>
      </trkpt>
      <trkpt lat="45.72449" lon="4.61105">
        <ele>673.99884033203</ele>
        <time>2021-01-28T16:12:58.914Z</time>
      </trkpt>
      <trkpt lat="45.72429" lon="4.61209">
        <ele>671.21136474609</ele>
        <time>2021-01-28T16:13:08.598Z</time>
      </trkpt>
      <trkpt lat="45.72437" lon="4.61254">
        <ele>673.96752929688</ele>
        <time>2021-01-28T16:13:18.293Z</time>
      </trkpt>
      <trkpt lat="45.72434" lon="4.6128">
        <ele>673.73254394531</ele>
        <time>2021-01-28T16:13:27.994Z</time>
      </trkpt>
      <trkpt lat="45.72433" lon="4.61311">
        <ele>672.75311279297</ele>
        <time>2021-01-28T16:13:37.702Z</time>
      </trkpt>
      <trkpt lat="45.72511" lon="4.61283">
        <ele>677.12933349609</ele>
        <time>2021-01-28T16:13:47.437Z</time>
      </trkpt>
      <trkpt lat="45.72566" lon="4.61221">
        <ele>683.86517333984</ele>
        <time>2021-01-28T16:13:57.195Z</time>
      </trkpt>
      <trkpt lat="45.72596" lon="4.61208">
        <ele>680.72515869141</ele>
        <time>2021-01-28T16:14:06.964Z</time>
      </trkpt>
      <trkpt lat="45.72655" lon="4.61231">
        <ele>676.68029785156</ele>
        <time>2021-01-28T16:14:16.753Z</time>
      </trkpt>
      <trkpt lat="45.72702" lon="4.6121">
        <ele>683.70599365234</ele>
        <time>2021-01-28T16:14:26.559Z</time>
      </trkpt>
      <trkpt lat="45.72702" lon="4.6121">
        <ele>683.70355224609</ele>
        <time>2021-01-28T16:14:36.365Z</time>
      </trkpt>
      <trkpt lat="45.72812" lon="4.61162">
        <ele>673.53900146484</ele>
        <time>2021-01-28T16:14:46.209Z</time>
      </trkpt>
      <trkpt lat="45.72871" lon="4.6119">
        <ele>671.66192626953</ele>
        <time>2021-01-28T16:14:56.074Z</time>
      </trkpt>
      <trkpt lat="45.72944" lon="4.61236">
        <ele>669.34429931641</ele>
        <time>2021-01-28T16:15:05.966Z</time>
      </trkpt>
      <trkpt lat="45.72971" lon="4.61241">
        <ele>667.83514404297</ele>
        <time>2021-01-28T16:15:15.867Z</time>
      </trkpt>
      <trkpt lat="45.73" lon="4.61234">
        <ele>668.41436767578</ele>
        <time>2021-01-28T16:15:25.777Z</time>
      </trkpt>
      <trkpt lat="45.73015" lon="4.6122">
        <ele>670.25811767578</ele>
        <time>2021-01-28T16:15:35.693Z</time>
      </trkpt>
      <trkpt lat="45.73048" lon="4.61187">
        <ele>671.82940673828</ele>
        <time>2021-01-28T16:15:45.623Z</time>
      </trkpt>
      <trkpt lat="45.7306" lon="4.61161">
        <ele>673.13732910156</ele>
        <time>2021-01-28T16:15:55.560Z</time>
      </trkpt>
      <trkpt lat="45.73129" lon="4.61117">
        <ele>678.81372070312</ele>
        <time>2021-01-28T16:16:05.522Z</time>
      </trkpt>
      <trkpt lat="45.73178" lon="4.61082">
        <ele>678.38635253906</ele>
        <time>2021-01-28T16:16:15.503Z</time>
      </trkpt>
      <trkpt lat="45.73199" lon="4.61075">
        <ele>678.73419189453</ele>
        <time>2021-01-28T16:16:25.491Z</time>
      </trkpt>
      <trkpt lat="45.73205" lon="4.61087">
        <ele>677.39569091797</ele>
        <time>2021-01-28T16:16:35.482Z</time>
      </trkpt>
      <trkpt lat="45.73228" lon="4.6116">
        <ele>668.60412597656</ele>
        <time>2021-01-28T16:16:45.492Z</time>
      </trkpt>
      <trkpt lat="45.73228" lon="4.61271">
        <ele>663.97448730469</ele>
        <time>2021-01-28T16:16:55.528Z</time>
      </trkpt>
      <trkpt lat="45.73228" lon="4.61271">
        <ele>663.97723388672</ele>
        <time>2021-01-28T16:17:05.564Z</time>
      </trkpt>
      <trkpt lat="45.73236" lon="4.61314">
        <ele>663.34814453125</ele>
        <time>2021-01-28T16:17:15.610Z</time>
      </trkpt>
      <trkpt lat="45.73283" lon="4.61389">
        <ele>665.39166259766</ele>
        <time>2021-01-28T16:17:25.680Z</time>
      </trkpt>
      <trkpt lat="45.7332" lon="4.61402">
        <ele>664.99145507812</ele>
        <time>2021-01-28T16:17:35.762Z</time>
      </trkpt>
      <trkpt lat="45.73372" lon="4.61403">
        <ele>667.57293701172</ele>
        <time>2021-01-28T16:17:45.862Z</time>
      </trkpt>
      <trkpt lat="45.73384" lon="4.61427">
        <ele>664.41577148438</ele>
        <time>2021-01-28T16:17:55.969Z</time>
      </trkpt>
      <trkpt lat="45.73359" lon="4.61549">
        <ele>654.04412841797</ele>
        <time>2021-01-28T16:18:06.105Z</time>
      </trkpt>
      <trkpt lat="45.7334" lon="4.61589">
        <ele>654.43676757812</ele>
        <time>2021-01-28T16:18:16.253Z</time>
      </trkpt>
      <trkpt lat="45.73305" lon="4.61633">
        <ele>648.79193115234</ele>
        <time>2021-01-28T16:18:26.416Z</time>
      </trkpt>
      <trkpt lat="45.733" lon="4.61684">
        <ele>654.98699951172</ele>
        <time>2021-01-28T16:18:36.591Z</time>
      </trkpt>
      <trkpt lat="45.73306" lon="4.61752">
        <ele>659.59948730469</ele>
        <time>2021-01-28T16:18:46.782Z</time>
      </trkpt>
      <trkpt lat="45.73329" lon="4.61848">
        <ele>659.35992431641</ele>
        <time>2021-01-28T16:18:56.997Z</time>
      </trkpt>
      <trkpt lat="45.73352" lon="4.61896">
        <ele>661.56091308594</ele>
        <time>2021-01-28T16:19:07.225Z</time>
      </trkpt>
      <trkpt lat="45.73392" lon="4.61954">
        <ele>668.05053710938</ele>
        <time>2021-01-28T16:19:17.472Z</time>
      </trkpt>
      <trkpt lat="45.734" lon="4.62037">
        <ele>661.23205566406</ele>
        <time>2021-01-28T16:19:27.739Z</time>
      </trkpt>
      <trkpt lat="45.734" lon="4.62103">
        <ele>660.22741699219</ele>
        <time>2021-01-28T16:19:38.021Z</time>
      </trkpt>
      <trkpt lat="45.73365" lon="4.62237">
        <ele>652.71893310547</ele>
        <time>2021-01-28T16:19:48.337Z</time>
      </trkpt>
      <trkpt lat="45.73365" lon="4.62237">
        <ele>652.71502685547</ele>
        <time>2021-01-28T16:19:58.653Z</time>
      </trkpt>
      <trkpt lat="45.73358" lon="4.62316">
        <ele>648.17767333984</ele>
        <time>2021-01-28T16:20:08.988Z</time>
      </trkpt>
      <trkpt lat="45.73338" lon="4.62358">
        <ele>635.62841796875</ele>
        <time>2021-01-28T16:20:19.334Z</time>
      </trkpt>
      <trkpt lat="45.73331" lon="4.62402">
        <ele>628.93438720703</ele>
        <time>2021-01-28T16:20:29.691Z</time>
      </trkpt>
      <trkpt lat="45.73348" lon="4.62491">
        <ele>622.43670654297</ele>
        <time>2021-01-28T16:20:40.070Z</time>
      </trkpt>
      <trkpt lat="45.73341" lon="4.62508">
        <ele>619.29052734375</ele>
        <time>2021-01-28T16:20:50.453Z</time>
      </trkpt>
      <trkpt lat="45.73294" lon="4.62531">
        <ele>609.74884033203</ele>
        <time>2021-01-28T16:21:00.853Z</time>
      </trkpt>
      <trkpt lat="45.73195" lon="4.62723">
        <ele>613.9931640625</ele>
        <time>2021-01-28T16:21:11.308Z</time>
      </trkpt>
      <trkpt lat="45.73184" lon="4.62783">
        <ele>614.43933105469</ele>
        <time>2021-01-28T16:21:21.778Z</time>
      </trkpt>
      <trkpt lat="45.73164" lon="4.62837">
        <ele>609.48559570312</ele>
        <time>2021-01-28T16:21:32.262Z</time>
      </trkpt>
      <trkpt lat="45.73153" lon="4.6293">
        <ele>605.6494140625</ele>
        <time>2021-01-28T16:21:42.768Z</time>
      </trkpt>
      <trkpt lat="45.73154" lon="4.6303">
        <ele>602.12231445312</ele>
        <time>2021-01-28T16:21:53.297Z</time>
      </trkpt>
      <trkpt lat="45.73155" lon="4.63106">
        <ele>600.71398925781</ele>
        <time>2021-01-28T16:22:03.844Z</time>
      </trkpt>
      <trkpt lat="45.73135" lon="4.6332">
        <ele>605.49273681641</ele>
        <time>2021-01-28T16:22:14.442Z</time>
      </trkpt>
      <trkpt lat="45.7313" lon="4.63399">
        <ele>601.10913085938</ele>
        <time>2021-01-28T16:22:25.058Z</time>
      </trkpt>
      <trkpt lat="45.73111" lon="4.63471">
        <ele>601.06896972656</ele>
        <time>2021-01-28T16:22:35.692Z</time>
      </trkpt>
      <trkpt lat="45.73088" lon="4.63638">
        <ele>587.16589355469</ele>
        <time>2021-01-28T16:22:46.366Z</time>
      </trkpt>
      <trkpt lat="45.73087" lon="4.63662">
        <ele>586.21710205078</ele>
        <time>2021-01-28T16:22:57.045Z</time>
      </trkpt>
      <trkpt lat="45.73087" lon="4.63671">
        <ele>585.83850097656</ele>
        <time>2021-01-28T16:23:07.727Z</time>
      </trkpt>
      <trkpt lat="45.73099" lon="4.63815">
        <ele>576.91461181641</ele>
        <time>2021-01-28T16:23:18.442Z</time>
      </trkpt>
      <trkpt lat="45.73099" lon="4.63843">
        <ele>575.11590576172</ele>
        <time>2021-01-28T16:23:29.164Z</time>
      </trkpt>
      <trkpt lat="45.73088" lon="4.63879">
        <ele>572.294921875</ele>
        <time>2021-01-28T16:23:39.895Z</time>
      </trkpt>
      <trkpt lat="45.73088" lon="4.63879">
        <ele>572.29583740234</ele>
        <time>2021-01-28T16:23:50.626Z</time>
      </trkpt>
      <trkpt lat="45.73069" lon="4.63943">
        <ele>567.73181152344</ele>
        <time>2021-01-28T16:24:01.373Z</time>
      </trkpt>
      <trkpt lat="45.73051" lon="4.64011">
        <ele>564.35131835938</ele>
        <time>2021-01-28T16:24:12.137Z</time>
      </trkpt>
      <trkpt lat="45.73026" lon="4.64102">
        <ele>555.68341064453</ele>
        <time>2021-01-28T16:24:22.924Z</time>
      </trkpt>
      <trkpt lat="45.73005" lon="4.64171">
        <ele>547.68603515625</ele>
        <time>2021-01-28T16:24:33.729Z</time>
      </trkpt>
      <trkpt lat="45.72998" lon="4.64235">
        <ele>538.96105957031</ele>
        <time>2021-01-28T16:24:44.549Z</time>
      </trkpt>
      <trkpt lat="45.73013" lon="4.64293">
        <ele>533.00518798828</ele>
        <time>2021-01-28T16:24:55.383Z</time>
      </trkpt>
      <trkpt lat="45.7303" lon="4.64329">
        <ele>528.91217041016</ele>
        <time>2021-01-28T16:25:06.227Z</time>
      </trkpt>
      <trkpt lat="45.73066" lon="4.64434">
        <ele>519.34631347656</ele>
        <time>2021-01-28T16:25:17.099Z</time>
      </trkpt>
      <trkpt lat="45.73067" lon="4.64524">
        <ele>505.13500976562</ele>
        <time>2021-01-28T16:25:27.992Z</time>
      </trkpt>
      <trkpt lat="45.73067" lon="4.64524">
        <ele>505.13320922852</ele>
        <time>2021-01-28T16:25:38.885Z</time>
      </trkpt>
      <trkpt lat="45.73067" lon="4.64531">
        <ele>504.45294189453</ele>
        <time>2021-01-28T16:25:49.779Z</time>
      </trkpt>
      <trkpt lat="45.7307" lon="4.64544">
        <ele>503.1535949707</ele>
        <time>2021-01-28T16:26:00.676Z</time>
      </trkpt>
      <trkpt lat="45.7309" lon="4.64566">
        <ele>501.60983276367</ele>
        <time>2021-01-28T16:26:11.582Z</time>
      </trkpt>
      <trkpt lat="45.73074" lon="4.6459">
        <ele>495.2868347168</ele>
        <time>2021-01-28T16:26:22.496Z</time>
      </trkpt>
      <trkpt lat="45.73092" lon="4.64634">
        <ele>486.09130859375</ele>
        <time>2021-01-28T16:26:33.422Z</time>
      </trkpt>
      <trkpt lat="45.73082" lon="4.6465">
        <ele>482.52270507812</ele>
        <time>2021-01-28T16:26:44.353Z</time>
      </trkpt>
      <trkpt lat="45.73082" lon="4.6465">
        <ele>482.52270507812</ele>
        <time>2021-01-28T16:26:55.284Z</time>
      </trkpt>
      <trkpt lat="45.73081" lon="4.64651">
        <ele>482.291015625</ele>
        <time>2021-01-28T16:27:06.215Z</time>
      </trkpt>
      <trkpt lat="45.73022" lon="4.64678">
        <ele>473.42877197266</ele>
        <time>2021-01-28T16:27:17.167Z</time>
      </trkpt>
      <trkpt lat="45.72981" lon="4.6472">
        <ele>462.80947875977</ele>
        <time>2021-01-28T16:27:28.136Z</time>
      </trkpt>
      <trkpt lat="45.72984" lon="4.64759">
        <ele>457.88272094727</ele>
        <time>2021-01-28T16:27:39.114Z</time>
      </trkpt>
      <trkpt lat="45.72909" lon="4.64809">
        <ele>448.98120117188</ele>
        <time>2021-01-28T16:27:50.120Z</time>
      </trkpt>
      <trkpt lat="45.72915" lon="4.64828">
        <ele>447.47659301758</ele>
        <time>2021-01-28T16:28:01.131Z</time>
      </trkpt>
      <trkpt lat="45.72915" lon="4.64828">
        <ele>447.47717285156</ele>
        <time>2021-01-28T16:28:12.142Z</time>
      </trkpt>
      <trkpt lat="45.72929" lon="4.64865">
        <ele>443.75341796875</ele>
        <time>2021-01-28T16:28:23.162Z</time>
      </trkpt>
      <trkpt lat="45.72944" lon="4.64877">
        <ele>441.93859863281</ele>
        <time>2021-01-28T16:28:34.188Z</time>
      </trkpt>
      <trkpt lat="45.73026" lon="4.64903">
        <ele>435.78823852539</ele>
        <time>2021-01-28T16:28:45.242Z</time>
      </trkpt>
      <trkpt lat="45.73068" lon="4.64907">
        <ele>432.91986083984</ele>
        <time>2021-01-28T16:28:56.310Z</time>
      </trkpt>
      <trkpt lat="45.73141" lon="4.64988">
        <ele>418.61535644531</ele>
        <time>2021-01-28T16:29:07.409Z</time>
      </trkpt>
      <trkpt lat="45.73259" lon="4.65059">
        <ele>406.92749023438</ele>
        <time>2021-01-28T16:29:18.550Z</time>
      </trkpt>
      <trkpt lat="45.73288" lon="4.65084">
        <ele>402.86791992188</ele>
        <time>2021-01-28T16:29:29.703Z</time>
      </trkpt>
      <trkpt lat="45.73318" lon="4.65047">
        <ele>402.52954101562</ele>
        <time>2021-01-28T16:29:40.869Z</time>
      </trkpt>
      <trkpt lat="45.73333" lon="4.64961">
        <ele>402.21572875977</ele>
        <time>2021-01-28T16:29:52.056Z</time>
      </trkpt>
      <trkpt lat="45.7334" lon="4.64948">
        <ele>401.03240966797</ele>
        <time>2021-01-28T16:30:03.247Z</time>
      </trkpt>
      <trkpt lat="45.73394" lon="4.64936">
        <ele>402.27597045898</ele>
        <time>2021-01-28T16:30:14.456Z</time>
      </trkpt>
      <trkpt lat="45.73468" lon="4.64937">
        <ele>407.82443237305</ele>
        <time>2021-01-28T16:30:25.689Z</time>
      </trkpt>
      <trkpt lat="45.73521" lon="4.64911">
        <ele>409.74160766602</ele>
        <time>2021-01-28T16:30:36.941Z</time>
      </trkpt>
      <trkpt lat="45.73522" lon="4.64911">
        <ele>409.74160766602</ele>
        <time>2021-01-28T16:30:48.193Z</time>
      </trkpt>
      <trkpt lat="45.73593" lon="4.64811">
        <ele>416.20736694336</ele>
        <time>2021-01-28T16:30:59.479Z</time>
      </trkpt>
      <trkpt lat="45.73593" lon="4.64811">
        <ele>416.20556640625</ele>
        <time>2021-01-28T16:31:10.765Z</time>
      </trkpt>
      <trkpt lat="45.7362" lon="4.64751">
        <ele>414.88403320312</ele>
        <time>2021-01-28T16:31:22.067Z</time>
      </trkpt>
      <trkpt lat="45.73624" lon="4.64726">
        <ele>416.01791381836</ele>
        <time>2021-01-28T16:31:33.375Z</time>
      </trkpt>
      <trkpt lat="45.73612" lon="4.64561">
        <ele>417.61218261719</ele>
        <time>2021-01-28T16:31:44.722Z</time>
      </trkpt>
      <trkpt lat="45.73652" lon="4.64466">
        <ele>418.96484375</ele>
        <time>2021-01-28T16:31:56.095Z</time>
      </trkpt>
      <trkpt lat="45.73677" lon="4.64432">
        <ele>419.63421630859</ele>
        <time>2021-01-28T16:32:07.480Z</time>
      </trkpt>
      <trkpt lat="45.73695" lon="4.64394">
        <ele>420.44912719727</ele>
        <time>2021-01-28T16:32:18.875Z</time>
      </trkpt>
      <trkpt lat="45.73702" lon="4.64364">
        <ele>420.89733886719</ele>
        <time>2021-01-28T16:32:30.278Z</time>
      </trkpt>
      <trkpt lat="45.73712" lon="4.64238">
        <ele>419.17581176758</ele>
        <time>2021-01-28T16:32:41.710Z</time>
      </trkpt>
      <trkpt lat="45.73722" lon="4.64201">
        <ele>420.78811645508</ele>
        <time>2021-01-28T16:32:53.152Z</time>
      </trkpt>
      <trkpt lat="45.73748" lon="4.64149">
        <ele>425.04431152344</ele>
        <time>2021-01-28T16:33:04.608Z</time>
      </trkpt>
      <trkpt lat="45.73796" lon="4.64104">
        <ele>426.9817199707</ele>
        <time>2021-01-28T16:33:16.083Z</time>
      </trkpt>
      <trkpt lat="45.73796" lon="4.64104">
        <ele>426.98114013672</ele>
        <time>2021-01-28T16:33:27.558Z</time>
      </trkpt>
      <trkpt lat="45.73796" lon="4.64104">
        <ele>426.9817199707</ele>
        <time>2021-01-28T16:33:39.034Z</time>
      </trkpt>
      <trkpt lat="45.73798" lon="4.64102">
        <ele>426.96844482422</ele>
        <time>2021-01-28T16:33:50.511Z</time>
      </trkpt>
      <trkpt lat="45.73804" lon="4.6408">
        <ele>428.12686157227</ele>
        <time>2021-01-28T16:34:01.993Z</time>
      </trkpt>
      <trkpt lat="45.73829" lon="4.63989">
        <ele>434.21701049805</ele>
        <time>2021-01-28T16:34:13.498Z</time>
      </trkpt>
      <trkpt lat="45.73835" lon="4.63981">
        <ele>434.17840576172</ele>
        <time>2021-01-28T16:34:25.005Z</time>
      </trkpt>
      <trkpt lat="45.73865" lon="4.63991">
        <ele>433.28149414062</ele>
        <time>2021-01-28T16:34:36.523Z</time>
      </trkpt>
      <trkpt lat="45.73878" lon="4.63967">
        <ele>435.93511962891</ele>
        <time>2021-01-28T16:34:48.048Z</time>
      </trkpt>
      <trkpt lat="45.73898" lon="4.63994">
        <ele>432.38549804688</ele>
        <time>2021-01-28T16:34:59.582Z</time>
      </trkpt>
      <trkpt lat="45.73896" lon="4.64034">
        <ele>427.67077636719</ele>
        <time>2021-01-28T16:35:11.125Z</time>
      </trkpt>
      <trkpt lat="45.73929" lon="4.64048">
        <ele>425.45880126953</ele>
        <time>2021-01-28T16:35:22.680Z</time>
      </trkpt>
      <trkpt lat="45.73932" lon="4.64054">
        <ele>424.8796081543</ele>
        <time>2021-01-28T16:35:34.237Z</time>
      </trkpt>
      <trkpt lat="45.73903" lon="4.64177">
        <ele>426.57537841797</ele>
        <time>2021-01-28T16:35:45.824Z</time>
      </trkpt>
      <trkpt lat="45.7388" lon="4.64234">
        <ele>425.97018432617</ele>
        <time>2021-01-28T16:35:57.426Z</time>
      </trkpt>
      <trkpt lat="45.73841" lon="4.64303">
        <ele>420.09173583984</ele>
        <time>2021-01-28T16:36:09.049Z</time>
      </trkpt>
      <trkpt lat="45.73821" lon="4.64457">
        <ele>413.98272705078</ele>
        <time>2021-01-28T16:36:20.708Z</time>
      </trkpt>
      <trkpt lat="45.7383" lon="4.6448">
        <ele>414.09893798828</ele>
        <time>2021-01-28T16:36:32.374Z</time>
      </trkpt>
      <trkpt lat="45.7383" lon="4.6448">
        <ele>414.0986328125</ele>
        <time>2021-01-28T16:36:44.040Z</time>
      </trkpt>
      <trkpt lat="45.73835" lon="4.64493">
        <ele>413.42861938477</ele>
        <time>2021-01-28T16:36:55.709Z</time>
      </trkpt>
      <trkpt lat="45.73871" lon="4.64526">
        <ele>418.46856689453</ele>
        <time>2021-01-28T16:37:07.393Z</time>
      </trkpt>
      <trkpt lat="45.73859" lon="4.64585">
        <ele>412.61428833008</ele>
        <time>2021-01-28T16:37:19.091Z</time>
      </trkpt>
      <trkpt lat="45.73862" lon="4.64596">
        <ele>413.54766845703</ele>
        <time>2021-01-28T16:37:30.791Z</time>
      </trkpt>
      <trkpt lat="45.73917" lon="4.64684">
        <ele>427.72137451172</ele>
        <time>2021-01-28T16:37:42.519Z</time>
      </trkpt>
      <trkpt lat="45.73918" lon="4.64705">
        <ele>427.95303344727</ele>
        <time>2021-01-28T16:37:54.252Z</time>
      </trkpt>
      <trkpt lat="45.73902" lon="4.64774">
        <ele>426.20318603516</ele>
        <time>2021-01-28T16:38:06.002Z</time>
      </trkpt>
      <trkpt lat="45.73906" lon="4.64791">
        <ele>427.17291259766</ele>
        <time>2021-01-28T16:38:17.756Z</time>
      </trkpt>
      <trkpt lat="45.73947" lon="4.64902">
        <ele>426.69970703125</ele>
        <time>2021-01-28T16:38:29.540Z</time>
      </trkpt>
      <trkpt lat="45.73943" lon="4.64959">
        <ele>420.83447265625</ele>
        <time>2021-01-28T16:38:41.337Z</time>
      </trkpt>
      <trkpt lat="45.73928" lon="4.65031">
        <ele>418.64596557617</ele>
        <time>2021-01-28T16:38:53.151Z</time>
      </trkpt>
      <trkpt lat="45.73905" lon="4.65095">
        <ele>413.75286865234</ele>
        <time>2021-01-28T16:39:04.982Z</time>
      </trkpt>
      <trkpt lat="45.73925" lon="4.65211">
        <ele>413.44415283203</ele>
        <time>2021-01-28T16:39:16.841Z</time>
      </trkpt>
      <trkpt lat="45.73925" lon="4.65211">
        <ele>413.44476318359</ele>
        <time>2021-01-28T16:39:28.700Z</time>
      </trkpt>
      <trkpt lat="45.73924" lon="4.65241">
        <ele>412.96224975586</ele>
        <time>2021-01-28T16:39:40.566Z</time>
      </trkpt>
      <trkpt lat="45.73894" lon="4.65281">
        <ele>413.88812255859</ele>
        <time>2021-01-28T16:39:52.446Z</time>
      </trkpt>
      <trkpt lat="45.73866" lon="4.65301">
        <ele>412.86694335938</ele>
        <time>2021-01-28T16:40:04.336Z</time>
      </trkpt>
      <trkpt lat="45.73839" lon="4.65369">
        <ele>413.17022705078</ele>
        <time>2021-01-28T16:40:16.245Z</time>
      </trkpt>
      <trkpt lat="45.7383" lon="4.65409">
        <ele>414.56198120117</ele>
        <time>2021-01-28T16:40:28.163Z</time>
      </trkpt>
      <trkpt lat="45.73826" lon="4.65518">
        <ele>413.52389526367</ele>
        <time>2021-01-28T16:40:40.107Z</time>
      </trkpt>
      <trkpt lat="45.73824" lon="4.65524">
        <ele>413.42608642578</ele>
        <time>2021-01-28T16:40:52.053Z</time>
      </trkpt>
      <trkpt lat="45.73796" lon="4.65538">
        <ele>409.3359375</ele>
        <time>2021-01-28T16:41:04.008Z</time>
      </trkpt>
      <trkpt lat="45.73775" lon="4.65531">
        <ele>405.2978515625</ele>
        <time>2021-01-28T16:41:15.971Z</time>
      </trkpt>
      <trkpt lat="45.73775" lon="4.65531">
        <ele>405.29119873047</ele>
        <time>2021-01-28T16:41:27.934Z</time>
      </trkpt>
      <trkpt lat="45.73775" lon="4.65531">
        <ele>405.2942199707</ele>
        <time>2021-01-28T16:41:39.897Z</time>
      </trkpt>
      <trkpt lat="45.73789" lon="4.65536">
        <ele>407.95550537109</ele>
        <time>2021-01-28T16:41:51.864Z</time>
      </trkpt>
    </trkseg>
  </trk>
</gpx>